<?xml version="1.0" encoding="utf-8"?>
<gpx xmlns:xsi="http://www.w3.org/2001/XMLSchema-instance" xmlns:xsd="http://www.w3.org/2001/XMLSchema" version="1.1" creator="Shapelink.com" xmlns="http://www.topografix.com/GPX/1/1" xmlns:gpxtpx="http://www.garmin.com/xmlschemas/TrackPointExtension/v1">
  <metadata>
    <name>Cykling 9.40 km, 2017-07-21</name>
    <desc></desc>
    <author><name>Alexander Engvall</name></author> 
    <time>2017-07-21T08:44:17Z</time>
  </metadata>
  <trk>
    <name>Cykling 9.40 km, 2017-07-21</name>
    <trkseg>
      <trkpt lat="59.219901217171" lon="17.907451330243">
        <ele>48</ele>
        <time>2017-07-21T08:44:17Z</time>
      </trkpt>
      <trkpt lat="59.21992057936" lon="17.90749768215">
        <ele>48</ele>
        <time>2017-07-21T08:44:18Z</time>
      </trkpt>
      <trkpt lat="59.220043625652" lon="17.907831617046">
        <ele>48</ele>
        <time>2017-07-21T08:44:24Z</time>
      </trkpt>
      <trkpt lat="59.220152925628" lon="17.908052228654">
        <ele>48</ele>
        <time>2017-07-21T08:44:29Z</time>
      </trkpt>
      <trkpt lat="59.220186537047" lon="17.908102436235">
        <ele>48</ele>
        <time>2017-07-21T08:44:30Z</time>
      </trkpt>
      <trkpt lat="59.220245042709" lon="17.908222884138">
        <ele>48</ele>
        <time>2017-07-21T08:44:32Z</time>
      </trkpt>
      <trkpt lat="59.220306901131" lon="17.908325059499">
        <ele>48</ele>
        <time>2017-07-21T08:44:34Z</time>
      </trkpt>
      <trkpt lat="59.220422571351" lon="17.908560255613">
        <ele>48</ele>
        <time>2017-07-21T08:44:40Z</time>
      </trkpt>
      <trkpt lat="59.220458110607" lon="17.908587748245">
        <ele>48</ele>
        <time>2017-07-21T08:44:42Z</time>
      </trkpt>
      <trkpt lat="59.220515358984" lon="17.908583222019">
        <ele>48</ele>
        <time>2017-07-21T08:44:44Z</time>
      </trkpt>
      <trkpt lat="59.220575038112" lon="17.908586574779">
        <ele>48</ele>
        <time>2017-07-21T08:44:46Z</time>
      </trkpt>
      <trkpt lat="59.220655588171" lon="17.908633932514">
        <ele>48</ele>
        <time>2017-07-21T08:44:49Z</time>
      </trkpt>
      <trkpt lat="59.220676542921" lon="17.908662179517">
        <ele>48</ele>
        <time>2017-07-21T08:44:50Z</time>
      </trkpt>
      <trkpt lat="59.22073110909" lon="17.908831745354">
        <ele>48</ele>
        <time>2017-07-21T08:44:54Z</time>
      </trkpt>
      <trkpt lat="59.220730438538" lon="17.908881701478">
        <ele>48</ele>
        <time>2017-07-21T08:44:55Z</time>
      </trkpt>
      <trkpt lat="59.220757847351" lon="17.909077837938">
        <ele>48</ele>
        <time>2017-07-21T08:44:59Z</time>
      </trkpt>
      <trkpt lat="59.220779305015" lon="17.90921513346">
        <ele>48</ele>
        <time>2017-07-21T08:45:02Z</time>
      </trkpt>
      <trkpt lat="59.220789698571" lon="17.909352261344">
        <ele>48</ele>
        <time>2017-07-21T08:45:05Z</time>
      </trkpt>
      <trkpt lat="59.220805540362" lon="17.909422836942">
        <ele>48</ele>
        <time>2017-07-21T08:45:07Z</time>
      </trkpt>
      <trkpt lat="59.220823226171" lon="17.909505566295">
        <ele>48</ele>
        <time>2017-07-21T08:45:10Z</time>
      </trkpt>
      <trkpt lat="59.220847701319" lon="17.909679742177">
        <ele>48.4</ele>
        <time>2017-07-21T08:45:14Z</time>
      </trkpt>
      <trkpt lat="59.220858011056" lon="17.909724333885">
        <ele>48.8</ele>
        <time>2017-07-21T08:45:15Z</time>
      </trkpt>
      <trkpt lat="59.220867147327" lon="17.909772781267">
        <ele>49.2</ele>
        <time>2017-07-21T08:45:16Z</time>
      </trkpt>
      <trkpt lat="59.220883072937" lon="17.909820725735">
        <ele>49.6</ele>
        <time>2017-07-21T08:45:17Z</time>
      </trkpt>
      <trkpt lat="59.220900339651" lon="17.909868670203">
        <ele>50</ele>
        <time>2017-07-21T08:45:18Z</time>
      </trkpt>
      <trkpt lat="59.220965886109" lon="17.910068243242">
        <ele>50</ele>
        <time>2017-07-21T08:45:22Z</time>
      </trkpt>
      <trkpt lat="59.221057584095" lon="17.910470406804">
        <ele>50</ele>
        <time>2017-07-21T08:45:28Z</time>
      </trkpt>
      <trkpt lat="59.220988768696" lon="17.910708704221">
        <ele>50</ele>
        <time>2017-07-21T08:45:32Z</time>
      </trkpt>
      <trkpt lat="59.22079816429" lon="17.911003411825">
        <ele>50</ele>
        <time>2017-07-21T08:45:39Z</time>
      </trkpt>
      <trkpt lat="59.220658857112" lon="17.911188651815">
        <ele>50</ele>
        <time>2017-07-21T08:45:44Z</time>
      </trkpt>
      <trkpt lat="59.220598758889" lon="17.91131479941">
        <ele>50</ele>
        <time>2017-07-21T08:45:47Z</time>
      </trkpt>
      <trkpt lat="59.220614349223" lon="17.911379926773">
        <ele>50</ele>
        <time>2017-07-21T08:45:48Z</time>
      </trkpt>
      <trkpt lat="59.220675369455" lon="17.911541613624">
        <ele>50</ele>
        <time>2017-07-21T08:45:51Z</time>
      </trkpt>
      <trkpt lat="59.220715434937" lon="17.911665665744">
        <ele>50</ele>
        <time>2017-07-21T08:45:53Z</time>
      </trkpt>
      <trkpt lat="59.220879803996" lon="17.912093142644">
        <ele>50</ele>
        <time>2017-07-21T08:46:01Z</time>
      </trkpt>
      <trkpt lat="59.220897405986" lon="17.912128765719">
        <ele>50</ele>
        <time>2017-07-21T08:46:02Z</time>
      </trkpt>
      <trkpt lat="59.220987679049" lon="17.912382485832">
        <ele>50</ele>
        <time>2017-07-21T08:46:07Z</time>
      </trkpt>
      <trkpt lat="59.221132769738" lon="17.912736285831">
        <ele>50</ele>
        <time>2017-07-21T08:46:14Z</time>
      </trkpt>
      <trkpt lat="59.221251876537" lon="17.913070723641">
        <ele>50</ele>
        <time>2017-07-21T08:46:21Z</time>
      </trkpt>
      <trkpt lat="59.221375509562" lon="17.913352271662">
        <ele>50</ele>
        <time>2017-07-21T08:46:28Z</time>
      </trkpt>
      <trkpt lat="59.221396967226" lon="17.913448076779">
        <ele>50</ele>
        <time>2017-07-21T08:46:31Z</time>
      </trkpt>
      <trkpt lat="59.22139579376" lon="17.91345888943">
        <ele>50</ele>
        <time>2017-07-21T08:46:32Z</time>
      </trkpt>
      <trkpt lat="59.22139579376" lon="17.913452100091">
        <ele>50</ele>
        <time>2017-07-21T08:46:34Z</time>
      </trkpt>
      <trkpt lat="59.221396129036" lon="17.913468025701">
        <ele>50</ele>
        <time>2017-07-21T08:46:37Z</time>
      </trkpt>
      <trkpt lat="59.221380203426" lon="17.913478335438">
        <ele>50</ele>
        <time>2017-07-21T08:46:38Z</time>
      </trkpt>
      <trkpt lat="59.221306275068" lon="17.913603309567">
        <ele>50</ele>
        <time>2017-07-21T08:46:43Z</time>
      </trkpt>
      <trkpt lat="59.221280458816" lon="17.913795171258">
        <ele>50</ele>
        <time>2017-07-21T08:46:46Z</time>
      </trkpt>
      <trkpt lat="59.221282302834" lon="17.914027014612">
        <ele>50</ele>
        <time>2017-07-21T08:46:50Z</time>
      </trkpt>
      <trkpt lat="59.221302922308" lon="17.914071354863">
        <ele>50</ele>
        <time>2017-07-21T08:46:51Z</time>
      </trkpt>
      <trkpt lat="59.22131197476" lon="17.914093985993">
        <ele>50</ele>
        <time>2017-07-21T08:46:53Z</time>
      </trkpt>
      <trkpt lat="59.221319769927" lon="17.914100523875">
        <ele>50</ele>
        <time>2017-07-21T08:47:04Z</time>
      </trkpt>
      <trkpt lat="59.221352543156" lon="17.914145199402">
        <ele>50</ele>
        <time>2017-07-21T08:47:07Z</time>
      </trkpt>
      <trkpt lat="59.221393949742" lon="17.914201693408">
        <ele>50</ele>
        <time>2017-07-21T08:47:09Z</time>
      </trkpt>
      <trkpt lat="59.221499477863" lon="17.914185851617">
        <ele>50</ele>
        <time>2017-07-21T08:47:13Z</time>
      </trkpt>
      <trkpt lat="59.221524120649" lon="17.914172608215">
        <ele>50</ele>
        <time>2017-07-21T08:47:14Z</time>
      </trkpt>
      <trkpt lat="59.221548092883" lon="17.914182666495">
        <ele>50.4</ele>
        <time>2017-07-21T08:47:15Z</time>
      </trkpt>
      <trkpt lat="59.221569550547" lon="17.914192557137">
        <ele>50.8</ele>
        <time>2017-07-21T08:47:16Z</time>
      </trkpt>
      <trkpt lat="59.221587152537" lon="17.914223570167">
        <ele>51.2</ele>
        <time>2017-07-21T08:47:17Z</time>
      </trkpt>
      <trkpt lat="59.221604586889" lon="17.914258103595">
        <ele>51.6</ele>
        <time>2017-07-21T08:47:18Z</time>
      </trkpt>
      <trkpt lat="59.221620093404" lon="17.914294481041">
        <ele>52</ele>
        <time>2017-07-21T08:47:19Z</time>
      </trkpt>
      <trkpt lat="59.221653621004" lon="17.914383329181">
        <ele>52</ele>
        <time>2017-07-21T08:47:21Z</time>
      </trkpt>
      <trkpt lat="59.221732662321" lon="17.914564378221">
        <ele>52</ele>
        <time>2017-07-21T08:47:25Z</time>
      </trkpt>
      <trkpt lat="59.221904910366" lon="17.914817092506">
        <ele>52</ele>
        <time>2017-07-21T08:47:31Z</time>
      </trkpt>
      <trkpt lat="59.222116050427" lon="17.915207605227">
        <ele>52</ele>
        <time>2017-07-21T08:47:39Z</time>
      </trkpt>
      <trkpt lat="59.222336578216" lon="17.915633657204">
        <ele>52</ele>
        <time>2017-07-21T08:47:48Z</time>
      </trkpt>
      <trkpt lat="59.222477477955" lon="17.91589634595">
        <ele>52.4</ele>
        <time>2017-07-21T08:47:55Z</time>
      </trkpt>
      <trkpt lat="59.222495750497" lon="17.915925012048">
        <ele>52.8</ele>
        <time>2017-07-21T08:47:56Z</time>
      </trkpt>
      <trkpt lat="59.222514525953" lon="17.91596004839">
        <ele>53.2</ele>
        <time>2017-07-21T08:47:57Z</time>
      </trkpt>
      <trkpt lat="59.222534977789" lon="17.915990726144">
        <ele>53.6</ele>
        <time>2017-07-21T08:47:58Z</time>
      </trkpt>
      <trkpt lat="59.222554423797" lon="17.916025930124">
        <ele>54</ele>
        <time>2017-07-21T08:47:59Z</time>
      </trkpt>
      <trkpt lat="59.222633046019" lon="17.916177726333">
        <ele>54</ele>
        <time>2017-07-21T08:48:03Z</time>
      </trkpt>
      <trkpt lat="59.222760031804" lon="17.916441085631">
        <ele>54</ele>
        <time>2017-07-21T08:48:11Z</time>
      </trkpt>
      <trkpt lat="59.222767491695" lon="17.916474445593">
        <ele>54.6</ele>
        <time>2017-07-21T08:48:12Z</time>
      </trkpt>
      <trkpt lat="59.222769838627" lon="17.91651157741">
        <ele>55</ele>
        <time>2017-07-21T08:48:13Z</time>
      </trkpt>
      <trkpt lat="59.222784339314" lon="17.916528425029">
        <ele>55.4</ele>
        <time>2017-07-21T08:48:14Z</time>
      </trkpt>
      <trkpt lat="59.222794313775" lon="17.916562539362">
        <ele>55.8</ele>
        <time>2017-07-21T08:48:15Z</time>
      </trkpt>
      <trkpt lat="59.222802947132" lon="17.916599084446">
        <ele>56.2</ele>
        <time>2017-07-21T08:48:16Z</time>
      </trkpt>
      <trkpt lat="59.222854831093" lon="17.916810895059">
        <ele>56.2</ele>
        <time>2017-07-21T08:48:22Z</time>
      </trkpt>
      <trkpt lat="59.222928675632" lon="17.917136699512">
        <ele>56.2</ele>
        <time>2017-07-21T08:48:30Z</time>
      </trkpt>
      <trkpt lat="59.222992713348" lon="17.917439789016">
        <ele>56.2</ele>
        <time>2017-07-21T08:48:37Z</time>
      </trkpt>
      <trkpt lat="59.223019703066" lon="17.917583287144">
        <ele>56.2</ele>
        <time>2017-07-21T08:48:41Z</time>
      </trkpt>
      <trkpt lat="59.223033030287" lon="17.917654617113">
        <ele>56.2</ele>
        <time>2017-07-21T08:48:43Z</time>
      </trkpt>
      <trkpt lat="59.223055577598" lon="17.917769449143">
        <ele>56.2</ele>
        <time>2017-07-21T08:48:46Z</time>
      </trkpt>
      <trkpt lat="59.223084914248" lon="17.917895010005">
        <ele>56.2</ele>
        <time>2017-07-21T08:48:50Z</time>
      </trkpt>
      <trkpt lat="59.223123051893" lon="17.9180882128">
        <ele>56.2</ele>
        <time>2017-07-21T08:48:56Z</time>
      </trkpt>
      <trkpt lat="59.223164039384" lon="17.918319888516">
        <ele>56.2</ele>
        <time>2017-07-21T08:49:01Z</time>
      </trkpt>
      <trkpt lat="59.223201422658" lon="17.918597916139">
        <ele>56.2</ele>
        <time>2017-07-21T08:49:07Z</time>
      </trkpt>
      <trkpt lat="59.223292114816" lon="17.919006785221">
        <ele>56.2</ele>
        <time>2017-07-21T08:49:15Z</time>
      </trkpt>
      <trkpt lat="59.223341065112" lon="17.919214991617">
        <ele>56.2</ele>
        <time>2017-07-21T08:49:20Z</time>
      </trkpt>
      <trkpt lat="59.223406527751" lon="17.919518248759">
        <ele>56.2</ele>
        <time>2017-07-21T08:49:27Z</time>
      </trkpt>
      <trkpt lat="59.223430248528" lon="17.919667027484">
        <ele>56.6</ele>
        <time>2017-07-21T08:49:30Z</time>
      </trkpt>
      <trkpt lat="59.223438043695" lon="17.919713630848">
        <ele>57</ele>
        <time>2017-07-21T08:49:31Z</time>
      </trkpt>
      <trkpt lat="59.223448604889" lon="17.919756043262">
        <ele>57.4</ele>
        <time>2017-07-21T08:49:32Z</time>
      </trkpt>
      <trkpt lat="59.223452209106" lon="17.919795857287">
        <ele>57.8</ele>
        <time>2017-07-21T08:49:33Z</time>
      </trkpt>
      <trkpt lat="59.223460004273" lon="17.919839359348">
        <ele>58.2</ele>
        <time>2017-07-21T08:49:34Z</time>
      </trkpt>
      <trkpt lat="59.223490346751" lon="17.920001632932">
        <ele>58.2</ele>
        <time>2017-07-21T08:49:38Z</time>
      </trkpt>
      <trkpt lat="59.223526556559" lon="17.920226854585">
        <ele>58.2</ele>
        <time>2017-07-21T08:49:43Z</time>
      </trkpt>
      <trkpt lat="59.223609788826" lon="17.920607895759">
        <ele>58.2</ele>
        <time>2017-07-21T08:49:51Z</time>
      </trkpt>
      <trkpt lat="59.22370081626" lon="17.920992792607">
        <ele>58.2</ele>
        <time>2017-07-21T08:49:58Z</time>
      </trkpt>
      <trkpt lat="59.223760495388" lon="17.921213404215">
        <ele>58.2</ele>
        <time>2017-07-21T08:50:02Z</time>
      </trkpt>
      <trkpt lat="59.223812127892" lon="17.921428567588">
        <ele>58.2</ele>
        <time>2017-07-21T08:50:06Z</time>
      </trkpt>
      <trkpt lat="59.223943388446" lon="17.921931649226">
        <ele>58.2</ele>
        <time>2017-07-21T08:50:14Z</time>
      </trkpt>
      <trkpt lat="59.224087724764" lon="17.922511676706">
        <ele>58.2</ele>
        <time>2017-07-21T08:50:21Z</time>
      </trkpt>
      <trkpt lat="59.224208256486" lon="17.92294720023">
        <ele>58.2</ele>
        <time>2017-07-21T08:50:27Z</time>
      </trkpt>
      <trkpt lat="59.224357789582" lon="17.923479702337">
        <ele>58.2</ele>
        <time>2017-07-21T08:50:35Z</time>
      </trkpt>
      <trkpt lat="59.224470609956" lon="17.923909526169">
        <ele>58.2</ele>
        <time>2017-07-21T08:50:42Z</time>
      </trkpt>
      <trkpt lat="59.224547891074" lon="17.924203982316">
        <ele>58.2</ele>
        <time>2017-07-21T08:50:47Z</time>
      </trkpt>
      <trkpt lat="59.224600864682" lon="17.924528529484">
        <ele>58.2</ele>
        <time>2017-07-21T08:50:52Z</time>
      </trkpt>
      <trkpt lat="59.224693652315" lon="17.924844694752">
        <ele>58.2</ele>
        <time>2017-07-21T08:50:58Z</time>
      </trkpt>
      <trkpt lat="59.224817955892" lon="17.9252379735">
        <ele>58.2</ele>
        <time>2017-07-21T08:51:05Z</time>
      </trkpt>
      <trkpt lat="59.224960783468" lon="17.925603340521">
        <ele>58.2</ele>
        <time>2017-07-21T08:51:12Z</time>
      </trkpt>
      <trkpt lat="59.224970003558" lon="17.925660002165">
        <ele>58.2</ele>
        <time>2017-07-21T08:51:13Z</time>
      </trkpt>
      <trkpt lat="59.225019205311" lon="17.92580542813">
        <ele>58.2</ele>
        <time>2017-07-21T08:51:16Z</time>
      </trkpt>
      <trkpt lat="59.225070921634" lon="17.925821605197">
        <ele>58.2</ele>
        <time>2017-07-21T08:51:19Z</time>
      </trkpt>
      <trkpt lat="59.22510646089" lon="17.925766955209">
        <ele>58.2</ele>
        <time>2017-07-21T08:51:23Z</time>
      </trkpt>
      <trkpt lat="59.225114339876" lon="17.92575262216">
        <ele>58.2</ele>
        <time>2017-07-21T08:51:24Z</time>
      </trkpt>
      <trkpt lat="59.225200757265" lon="17.925636197569">
        <ele>58.2</ele>
        <time>2017-07-21T08:51:30Z</time>
      </trkpt>
      <trkpt lat="59.225206037862" lon="17.925496555115">
        <ele>58.2</ele>
        <time>2017-07-21T08:51:34Z</time>
      </trkpt>
      <trkpt lat="59.225208049518" lon="17.925463614248">
        <ele>58.2</ele>
        <time>2017-07-21T08:51:35Z</time>
      </trkpt>
      <trkpt lat="59.225204612939" lon="17.925313829695">
        <ele>58.2</ele>
        <time>2017-07-21T08:51:40Z</time>
      </trkpt>
      <trkpt lat="59.225211402278" lon="17.925238895509">
        <ele>58.6</ele>
        <time>2017-07-21T08:51:43Z</time>
      </trkpt>
      <trkpt lat="59.225208552432" lon="17.925195812543">
        <ele>59</ele>
        <time>2017-07-21T08:51:44Z</time>
      </trkpt>
      <trkpt lat="59.225200002894" lon="17.925174354879">
        <ele>59.4</ele>
        <time>2017-07-21T08:51:45Z</time>
      </trkpt>
      <trkpt lat="59.225200673446" lon="17.92514493441">
        <ele>59.8</ele>
        <time>2017-07-21T08:51:46Z</time>
      </trkpt>
      <trkpt lat="59.225193297374" lon="17.925103527824">
        <ele>60.2</ele>
        <time>2017-07-21T08:51:47Z</time>
      </trkpt>
      <trkpt lat="59.225176617393" lon="17.925037143176">
        <ele>60.2</ele>
        <time>2017-07-21T08:51:49Z</time>
      </trkpt>
      <trkpt lat="59.225163541629" lon="17.925007890345">
        <ele>60.2</ele>
        <time>2017-07-21T08:51:50Z</time>
      </trkpt>
      <trkpt lat="59.225168822226" lon="17.924971177623">
        <ele>60.2</ele>
        <time>2017-07-21T08:51:51Z</time>
      </trkpt>
      <trkpt lat="59.225171085339" lon="17.924925915363">
        <ele>60.6</ele>
        <time>2017-07-21T08:51:53Z</time>
      </trkpt>
      <trkpt lat="59.225183909646" lon="17.924894064143">
        <ele>61</ele>
        <time>2017-07-21T08:51:54Z</time>
      </trkpt>
      <trkpt lat="59.225187346225" lon="17.924859530715">
        <ele>61.4</ele>
        <time>2017-07-21T08:51:55Z</time>
      </trkpt>
      <trkpt lat="59.22518860351" lon="17.92484067144">
        <ele>61.8</ele>
        <time>2017-07-21T08:51:56Z</time>
      </trkpt>
      <trkpt lat="59.225192207727" lon="17.924812340618">
        <ele>62.2</ele>
        <time>2017-07-21T08:51:57Z</time>
      </trkpt>
      <trkpt lat="59.225226741155" lon="17.924699436425">
        <ele>62.2</ele>
        <time>2017-07-21T08:52:01Z</time>
      </trkpt>
      <trkpt lat="59.225271416682" lon="17.924519141756">
        <ele>62.8</ele>
        <time>2017-07-21T08:52:05Z</time>
      </trkpt>
      <trkpt lat="59.225285665912" lon="17.924450829271">
        <ele>63.2</ele>
        <time>2017-07-21T08:52:06Z</time>
      </trkpt>
      <trkpt lat="59.225306369205" lon="17.924399196767">
        <ele>64</ele>
        <time>2017-07-21T08:52:07Z</time>
      </trkpt>
      <trkpt lat="59.225329167973" lon="17.924380924225">
        <ele>64.4</ele>
        <time>2017-07-21T08:52:08Z</time>
      </trkpt>
      <trkpt lat="59.225355487139" lon="17.924349575919">
        <ele>64.4</ele>
        <time>2017-07-21T08:52:09Z</time>
      </trkpt>
      <trkpt lat="59.225379627011" lon="17.924319149622">
        <ele>64.8</ele>
        <time>2017-07-21T08:52:10Z</time>
      </trkpt>
      <trkpt lat="59.225388595644" lon="17.924273971181">
        <ele>65.2</ele>
        <time>2017-07-21T08:52:11Z</time>
      </trkpt>
      <trkpt lat="59.225406868186" lon="17.924229379473">
        <ele>65.8</ele>
        <time>2017-07-21T08:52:12Z</time>
      </trkpt>
      <trkpt lat="59.225424051081" lon="17.924221835763">
        <ele>66.2</ele>
        <time>2017-07-21T08:52:13Z</time>
      </trkpt>
      <trkpt lat="59.225425056909" lon="17.92418772143">
        <ele>66.6</ele>
        <time>2017-07-21T08:52:14Z</time>
      </trkpt>
      <trkpt lat="59.225474510119" lon="17.92403181809">
        <ele>66.6</ele>
        <time>2017-07-21T08:52:18Z</time>
      </trkpt>
      <trkpt lat="59.225446514573" lon="17.924035673764">
        <ele>66.6</ele>
        <time>2017-07-21T08:52:21Z</time>
      </trkpt>
      <trkpt lat="59.225445424926" lon="17.92406283112">
        <ele>66.6</ele>
        <time>2017-07-21T08:52:23Z</time>
      </trkpt>
      <trkpt lat="59.225453052455" lon="17.924080768386">
        <ele>66.6</ele>
        <time>2017-07-21T08:52:24Z</time>
      </trkpt>
      <trkpt lat="59.225463362192" lon="17.924108512475">
        <ele>66.6</ele>
        <time>2017-07-21T08:52:26Z</time>
      </trkpt>
      <trkpt lat="59.228161160526" lon="17.930905981918">
        <ele>51.8</ele>
        <time>2017-07-21T08:57:55Z</time>
      </trkpt>
      <trkpt lat="59.228145067278" lon="17.931030536952">
        <ele>51.8</ele>
        <time>2017-07-21T08:57:57Z</time>
      </trkpt>
      <trkpt lat="59.228138948491" lon="17.931141764765">
        <ele>51.8</ele>
        <time>2017-07-21T08:57:59Z</time>
      </trkpt>
      <trkpt lat="59.228128806392" lon="17.93137520068">
        <ele>51.8</ele>
        <time>2017-07-21T08:58:03Z</time>
      </trkpt>
      <trkpt lat="59.228103576873" lon="17.931766467772">
        <ele>51.8</ele>
        <time>2017-07-21T08:58:10Z</time>
      </trkpt>
      <trkpt lat="59.228078514992" lon="17.932144156186">
        <ele>51.8</ele>
        <time>2017-07-21T08:58:16Z</time>
      </trkpt>
      <trkpt lat="59.2280476696" lon="17.932490412475">
        <ele>51.8</ele>
        <time>2017-07-21T08:58:22Z</time>
      </trkpt>
      <trkpt lat="59.228040796442" lon="17.932753855592">
        <ele>51.4</ele>
        <time>2017-07-21T08:58:27Z</time>
      </trkpt>
      <trkpt lat="59.228035515845" lon="17.932803057345">
        <ele>50.8</ele>
        <time>2017-07-21T08:58:28Z</time>
      </trkpt>
      <trkpt lat="59.228023948823" lon="17.932844044836">
        <ele>50.4</ele>
        <time>2017-07-21T08:58:29Z</time>
      </trkpt>
      <trkpt lat="59.228017243303" lon="17.932884361775">
        <ele>50</ele>
        <time>2017-07-21T08:58:30Z</time>
      </trkpt>
      <trkpt lat="59.22801162743" lon="17.932924427257">
        <ele>49.6</ele>
        <time>2017-07-21T08:58:31Z</time>
      </trkpt>
      <trkpt lat="59.227998551666" lon="17.933020232374">
        <ele>49.6</ele>
        <time>2017-07-21T08:58:33Z</time>
      </trkpt>
      <trkpt lat="59.227955301062" lon="17.933387024318">
        <ele>49.6</ele>
        <time>2017-07-21T08:58:40Z</time>
      </trkpt>
      <trkpt lat="59.227912804829" lon="17.933763455447">
        <ele>49.6</ele>
        <time>2017-07-21T08:58:48Z</time>
      </trkpt>
      <trkpt lat="59.227873577537" lon="17.934114740876">
        <ele>49.6</ele>
        <time>2017-07-21T08:58:54Z</time>
      </trkpt>
      <trkpt lat="59.227821274481" lon="17.934672304864">
        <ele>49.6</ele>
        <time>2017-07-21T08:59:03Z</time>
      </trkpt>
      <trkpt lat="59.227817418807" lon="17.934737767503">
        <ele>49.2</ele>
        <time>2017-07-21T08:59:04Z</time>
      </trkpt>
      <trkpt lat="59.227818173178" lon="17.934790908749">
        <ele>48.8</ele>
        <time>2017-07-21T08:59:05Z</time>
      </trkpt>
      <trkpt lat="59.227814485142" lon="17.934855868474">
        <ele>48</ele>
        <time>2017-07-21T08:59:06Z</time>
      </trkpt>
      <trkpt lat="59.227811635296" lon="17.934922001665">
        <ele>47.6</ele>
        <time>2017-07-21T08:59:07Z</time>
      </trkpt>
      <trkpt lat="59.227810797106" lon="17.935077737367">
        <ele>47.6</ele>
        <time>2017-07-21T08:59:09Z</time>
      </trkpt>
      <trkpt lat="59.227819933377" lon="17.935361716139">
        <ele>47.2</ele>
        <time>2017-07-21T08:59:14Z</time>
      </trkpt>
      <trkpt lat="59.227818676092" lon="17.935427346416">
        <ele>46.8</ele>
        <time>2017-07-21T08:59:15Z</time>
      </trkpt>
      <trkpt lat="59.227817754083" lon="17.935488366648">
        <ele>46.4</ele>
        <time>2017-07-21T08:59:16Z</time>
      </trkpt>
      <trkpt lat="59.227814485142" lon="17.935540502066">
        <ele>46</ele>
        <time>2017-07-21T08:59:17Z</time>
      </trkpt>
      <trkpt lat="59.227809204545" lon="17.935586099602">
        <ele>45.6</ele>
        <time>2017-07-21T08:59:18Z</time>
      </trkpt>
      <trkpt lat="59.227805767966" lon="17.935631110405">
        <ele>45.6</ele>
        <time>2017-07-21T08:59:19Z</time>
      </trkpt>
      <trkpt lat="59.227777940058" lon="17.935944844922">
        <ele>45.2</ele>
        <time>2017-07-21T08:59:25Z</time>
      </trkpt>
      <trkpt lat="59.22777190509" lon="17.936000836014">
        <ele>44.8</ele>
        <time>2017-07-21T08:59:26Z</time>
      </trkpt>
      <trkpt lat="59.227764612837" lon="17.936057581477">
        <ele>44.4</ele>
        <time>2017-07-21T08:59:27Z</time>
      </trkpt>
      <trkpt lat="59.227757907317" lon="17.936114075483">
        <ele>44</ele>
        <time>2017-07-21T08:59:28Z</time>
      </trkpt>
      <trkpt lat="59.22775095034" lon="17.936166965272">
        <ele>43.6</ele>
        <time>2017-07-21T08:59:29Z</time>
      </trkpt>
      <trkpt lat="59.227771234538" lon="17.9362685539">
        <ele>43.6</ele>
        <time>2017-07-21T08:59:31Z</time>
      </trkpt>
      <trkpt lat="59.227765031932" lon="17.93642026629">
        <ele>43.6</ele>
        <time>2017-07-21T08:59:36Z</time>
      </trkpt>
      <trkpt lat="59.227763942285" lon="17.936428732009">
        <ele>43.6</ele>
        <time>2017-07-21T08:59:38Z</time>
      </trkpt>
      <trkpt lat="59.227763690828" lon="17.936429654018">
        <ele>43.6</ele>
        <time>2017-07-21T08:59:53Z</time>
      </trkpt>
      <trkpt lat="59.227757404403" lon="17.936449100026">
        <ele>43.6</ele>
        <time>2017-07-21T08:59:54Z</time>
      </trkpt>
      <trkpt lat="59.227742233164" lon="17.93650576167">
        <ele>43.6</ele>
        <time>2017-07-21T08:59:56Z</time>
      </trkpt>
      <trkpt lat="59.227731755789" lon="17.936589915946">
        <ele>43.6</ele>
        <time>2017-07-21T08:59:58Z</time>
      </trkpt>
      <trkpt lat="59.227699653112" lon="17.936743891449">
        <ele>43.6</ele>
        <time>2017-07-21T09:00:02Z</time>
      </trkpt>
      <trkpt lat="59.227702586777" lon="17.936851850321">
        <ele>43.6</ele>
        <time>2017-07-21T09:00:05Z</time>
      </trkpt>
      <trkpt lat="59.227722116604" lon="17.936870961053">
        <ele>43.6</ele>
        <time>2017-07-21T09:00:06Z</time>
      </trkpt>
      <trkpt lat="59.227871062967" lon="17.936939357357">
        <ele>43.2</ele>
        <time>2017-07-21T09:00:12Z</time>
      </trkpt>
      <trkpt lat="59.22789344264" lon="17.936955282967">
        <ele>42.6</ele>
        <time>2017-07-21T09:00:13Z</time>
      </trkpt>
      <trkpt lat="59.227915487037" lon="17.936969783654">
        <ele>42.2</ele>
        <time>2017-07-21T09:00:14Z</time>
      </trkpt>
      <trkpt lat="59.227935100683" lon="17.936980847762">
        <ele>41.8</ele>
        <time>2017-07-21T09:00:15Z</time>
      </trkpt>
      <trkpt lat="59.227954379053" lon="17.936993085336">
        <ele>41.4</ele>
        <time>2017-07-21T09:00:16Z</time>
      </trkpt>
      <trkpt lat="59.228080107553" lon="17.937079502725">
        <ele>41</ele>
        <time>2017-07-21T09:00:21Z</time>
      </trkpt>
      <trkpt lat="59.228114557162" lon="17.937101630941">
        <ele>40.6</ele>
        <time>2017-07-21T09:00:22Z</time>
      </trkpt>
      <trkpt lat="59.228150431694" lon="17.9371235077">
        <ele>40.2</ele>
        <time>2017-07-21T09:00:23Z</time>
      </trkpt>
      <trkpt lat="59.228184629846" lon="17.937150413599">
        <ele>39.8</ele>
        <time>2017-07-21T09:00:24Z</time>
      </trkpt>
      <trkpt lat="59.22821949855" lon="17.93718050462">
        <ele>39.4</ele>
        <time>2017-07-21T09:00:25Z</time>
      </trkpt>
      <trkpt lat="59.228258642023" lon="17.937206572329">
        <ele>39.4</ele>
        <time>2017-07-21T09:00:26Z</time>
      </trkpt>
      <trkpt lat="59.228362158488" lon="17.937253678607">
        <ele>39.4</ele>
        <time>2017-07-21T09:00:29Z</time>
      </trkpt>
      <trkpt lat="59.22856483283" lon="17.937391979957">
        <ele>39</ele>
        <time>2017-07-21T09:00:34Z</time>
      </trkpt>
      <trkpt lat="59.228607412882" lon="17.937418885856">
        <ele>38.4</ele>
        <time>2017-07-21T09:00:35Z</time>
      </trkpt>
      <trkpt lat="59.228653345694" lon="17.937443444823">
        <ele>38</ele>
        <time>2017-07-21T09:00:36Z</time>
      </trkpt>
      <trkpt lat="59.228701373981" lon="17.937472530016">
        <ele>37.6</ele>
        <time>2017-07-21T09:00:37Z</time>
      </trkpt>
      <trkpt lat="59.228746971517" lon="17.937502788675">
        <ele>37</ele>
        <time>2017-07-21T09:00:38Z</time>
      </trkpt>
      <trkpt lat="59.228793239605" lon="17.937535645723">
        <ele>36.6</ele>
        <time>2017-07-21T09:00:39Z</time>
      </trkpt>
      <trkpt lat="59.228838753322" lon="17.93757026297">
        <ele>36.2</ele>
        <time>2017-07-21T09:00:40Z</time>
      </trkpt>
      <trkpt lat="59.228886613971" lon="17.93760546695">
        <ele>35.6</ele>
        <time>2017-07-21T09:00:41Z</time>
      </trkpt>
      <trkpt lat="59.228934809896" lon="17.937644107509">
        <ele>35.2</ele>
        <time>2017-07-21T09:00:42Z</time>
      </trkpt>
      <trkpt lat="59.228981664717" lon="17.937680233498">
        <ele>34.8</ele>
        <time>2017-07-21T09:00:43Z</time>
      </trkpt>
      <trkpt lat="59.229082498974" lon="17.937740583178">
        <ele>34</ele>
        <time>2017-07-21T09:00:45Z</time>
      </trkpt>
      <trkpt lat="59.229133628564" lon="17.937773188769">
        <ele>33.4</ele>
        <time>2017-07-21T09:00:46Z</time>
      </trkpt>
      <trkpt lat="59.229183584688" lon="17.937807806016">
        <ele>33</ele>
        <time>2017-07-21T09:00:47Z</time>
      </trkpt>
      <trkpt lat="59.229231612975" lon="17.937843932005">
        <ele>32.6</ele>
        <time>2017-07-21T09:00:48Z</time>
      </trkpt>
      <trkpt lat="59.229581808757" lon="17.938102262163">
        <ele>32.6</ele>
        <time>2017-07-21T09:00:55Z</time>
      </trkpt>
      <trkpt lat="59.229727150903" lon="17.938196893814">
        <ele>32.6</ele>
        <time>2017-07-21T09:00:58Z</time>
      </trkpt>
      <trkpt lat="59.229822201649" lon="17.938250621793">
        <ele>32.6</ele>
        <time>2017-07-21T09:01:01Z</time>
      </trkpt>
      <trkpt lat="59.229916246567" lon="17.938306780523">
        <ele>32.6</ele>
        <time>2017-07-21T09:01:08Z</time>
      </trkpt>
      <trkpt lat="59.229936446946" lon="17.93832882492">
        <ele>32.6</ele>
        <time>2017-07-21T09:01:09Z</time>
      </trkpt>
      <trkpt lat="59.22995622823" lon="17.938447261167">
        <ele>32.6</ele>
        <time>2017-07-21T09:01:12Z</time>
      </trkpt>
      <trkpt lat="59.229945415579" lon="17.938537282773">
        <ele>32.6</ele>
        <time>2017-07-21T09:01:14Z</time>
      </trkpt>
      <trkpt lat="59.229909373409" lon="17.938701065099">
        <ele>32.6</ele>
        <time>2017-07-21T09:01:18Z</time>
      </trkpt>
      <trkpt lat="59.229880539673" lon="17.9389591438">
        <ele>32.6</ele>
        <time>2017-07-21T09:01:24Z</time>
      </trkpt>
      <trkpt lat="59.229871990135" lon="17.93899518597">
        <ele>32.6</ele>
        <time>2017-07-21T09:01:25Z</time>
      </trkpt>
      <trkpt lat="59.229859584923" lon="17.939149161473">
        <ele>32.6</ele>
        <time>2017-07-21T09:01:29Z</time>
      </trkpt>
      <trkpt lat="59.229836450879" lon="17.939261898028">
        <ele>32.6</ele>
        <time>2017-07-21T09:01:33Z</time>
      </trkpt>
      <trkpt lat="59.229818262156" lon="17.939325600468">
        <ele>32.6</ele>
        <time>2017-07-21T09:01:35Z</time>
      </trkpt>
      <trkpt lat="59.229779286321" lon="17.939554426338">
        <ele>32.6</ele>
        <time>2017-07-21T09:01:41Z</time>
      </trkpt>
      <trkpt lat="59.229774676276" lon="17.939596252019">
        <ele>32.6</ele>
        <time>2017-07-21T09:01:42Z</time>
      </trkpt>
      <trkpt lat="59.229735197527" lon="17.939822395681">
        <ele>32.6</ele>
        <time>2017-07-21T09:01:47Z</time>
      </trkpt>
      <trkpt lat="59.229677194779" lon="17.940160940622">
        <ele>32.6</ele>
        <time>2017-07-21T09:01:54Z</time>
      </trkpt>
      <trkpt lat="59.229654982744" lon="17.940332182839">
        <ele>32.2</ele>
        <time>2017-07-21T09:01:56Z</time>
      </trkpt>
      <trkpt lat="59.229641655523" lon="17.940415247468">
        <ele>31.8</ele>
        <time>2017-07-21T09:01:57Z</time>
      </trkpt>
      <trkpt lat="59.229627490112" lon="17.940493785871">
        <ele>31.4</ele>
        <time>2017-07-21T09:01:58Z</time>
      </trkpt>
      <trkpt lat="59.229613743796" lon="17.940568384781">
        <ele>30.6</ele>
        <time>2017-07-21T09:01:59Z</time>
      </trkpt>
      <trkpt lat="59.229545096035" lon="17.941025030693">
        <ele>30.6</ele>
        <time>2017-07-21T09:02:06Z</time>
      </trkpt>
      <trkpt lat="59.229509892055" lon="17.941285288688">
        <ele>30.6</ele>
        <time>2017-07-21T09:02:11Z</time>
      </trkpt>
      <trkpt lat="59.229459768293" lon="17.941555940239">
        <ele>30.6</ele>
        <time>2017-07-21T09:02:16Z</time>
      </trkpt>
      <trkpt lat="59.229403106649" lon="17.941918708871">
        <ele>30.6</ele>
        <time>2017-07-21T09:02:23Z</time>
      </trkpt>
      <trkpt lat="59.229344014254" lon="17.942301929339">
        <ele>30.6</ele>
        <time>2017-07-21T09:02:30Z</time>
      </trkpt>
      <trkpt lat="59.229291040646" lon="17.942670900577">
        <ele>30.6</ele>
        <time>2017-07-21T09:02:37Z</time>
      </trkpt>
      <trkpt lat="59.229237480305" lon="17.943029813535">
        <ele>30.6</ele>
        <time>2017-07-21T09:02:44Z</time>
      </trkpt>
      <trkpt lat="59.22915827135" lon="17.943516466649">
        <ele>30.6</ele>
        <time>2017-07-21T09:02:52Z</time>
      </trkpt>
      <trkpt lat="59.229084845906" lon="17.943813269728">
        <ele>30.6</ele>
        <time>2017-07-21T09:02:58Z</time>
      </trkpt>
      <trkpt lat="59.229072440694" lon="17.943857861436">
        <ele>30.6</ele>
        <time>2017-07-21T09:03:00Z</time>
      </trkpt>
      <trkpt lat="59.229082918069" lon="17.943909242483">
        <ele>30.6</ele>
        <time>2017-07-21T09:04:23Z</time>
      </trkpt>
      <trkpt lat="59.229089288313" lon="17.944027175816">
        <ele>30.6</ele>
        <time>2017-07-21T09:04:27Z</time>
      </trkpt>
      <trkpt lat="59.229088869218" lon="17.944087357858">
        <ele>30.6</ele>
        <time>2017-07-21T09:04:29Z</time>
      </trkpt>
      <trkpt lat="59.22905936493" lon="17.944229933977">
        <ele>30.6</ele>
        <time>2017-07-21T09:04:33Z</time>
      </trkpt>
      <trkpt lat="59.229019550905" lon="17.944400086547">
        <ele>30.6</ele>
        <time>2017-07-21T09:04:37Z</time>
      </trkpt>
      <trkpt lat="59.229012845385" lon="17.944458256933">
        <ele>30.6</ele>
        <time>2017-07-21T09:04:38Z</time>
      </trkpt>
      <trkpt lat="59.228959368863" lon="17.944760675885">
        <ele>30.6</ele>
        <time>2017-07-21T09:04:43Z</time>
      </trkpt>
      <trkpt lat="59.22890178521" lon="17.945130820589">
        <ele>30.6</ele>
        <time>2017-07-21T09:04:50Z</time>
      </trkpt>
      <trkpt lat="59.228849146878" lon="17.945477495973">
        <ele>30.6</ele>
        <time>2017-07-21T09:04:56Z</time>
      </trkpt>
      <trkpt lat="59.228743702576" lon="17.945787961549">
        <ele>30.6</ele>
        <time>2017-07-21T09:05:01Z</time>
      </trkpt>
      <trkpt lat="59.228667008191" lon="17.945924754157">
        <ele>30.6</ele>
        <time>2017-07-21T09:05:03Z</time>
      </trkpt>
      <trkpt lat="59.228581345173" lon="17.946026091328">
        <ele>30.6</ele>
        <time>2017-07-21T09:05:05Z</time>
      </trkpt>
      <trkpt lat="59.228363918687" lon="17.946285594952">
        <ele>30.6</ele>
        <time>2017-07-21T09:05:11Z</time>
      </trkpt>
      <trkpt lat="59.228307173224" lon="17.946355583817">
        <ele>31</ele>
        <time>2017-07-21T09:05:13Z</time>
      </trkpt>
      <trkpt lat="59.228279512954" lon="17.946389195236">
        <ele>31.4</ele>
        <time>2017-07-21T09:05:14Z</time>
      </trkpt>
      <trkpt lat="59.228252020322" lon="17.94642238756">
        <ele>31.8</ele>
        <time>2017-07-21T09:05:15Z</time>
      </trkpt>
      <trkpt lat="59.228225952613" lon="17.946455579884">
        <ele>32.2</ele>
        <time>2017-07-21T09:05:16Z</time>
      </trkpt>
      <trkpt lat="59.228198459981" lon="17.946491789692">
        <ele>32.6</ele>
        <time>2017-07-21T09:05:17Z</time>
      </trkpt>
      <trkpt lat="59.228148084762" lon="17.946563622575">
        <ele>32.6</ele>
        <time>2017-07-21T09:05:19Z</time>
      </trkpt>
      <trkpt lat="59.228019338778" lon="17.946736289715">
        <ele>33</ele>
        <time>2017-07-21T09:05:25Z</time>
      </trkpt>
      <trkpt lat="59.228001736788" lon="17.94675179623">
        <ele>33.4</ele>
        <time>2017-07-21T09:05:26Z</time>
      </trkpt>
      <trkpt lat="59.227982877513" lon="17.946757412103">
        <ele>33.8</ele>
        <time>2017-07-21T09:05:27Z</time>
      </trkpt>
      <trkpt lat="59.227962760953" lon="17.946756154818">
        <ele>34.2</ele>
        <time>2017-07-21T09:05:28Z</time>
      </trkpt>
      <trkpt lat="59.227946919162" lon="17.946751209497">
        <ele>34.6</ele>
        <time>2017-07-21T09:05:29Z</time>
      </trkpt>
      <trkpt lat="59.22793367576" lon="17.946740229208">
        <ele>34.6</ele>
        <time>2017-07-21T09:05:30Z</time>
      </trkpt>
      <trkpt lat="59.227925461498" lon="17.946730590023">
        <ele>34.6</ele>
        <time>2017-07-21T09:05:31Z</time>
      </trkpt>
      <trkpt lat="59.227922192557" lon="17.946728494548">
        <ele>34.6</ele>
        <time>2017-07-21T09:05:32Z</time>
      </trkpt>
      <trkpt lat="59.227910038802" lon="17.946734864792">
        <ele>34.6</ele>
        <time>2017-07-21T09:06:09Z</time>
      </trkpt>
      <trkpt lat="59.22789847178" lon="17.946744671615">
        <ele>34.6</ele>
        <time>2017-07-21T09:06:11Z</time>
      </trkpt>
      <trkpt lat="59.227846336362" lon="17.946803680191">
        <ele>34.6</ele>
        <time>2017-07-21T09:06:16Z</time>
      </trkpt>
      <trkpt lat="59.227834350245" lon="17.946818599973">
        <ele>34.6</ele>
        <time>2017-07-21T09:06:17Z</time>
      </trkpt>
      <trkpt lat="59.227761092439" lon="17.946899401489">
        <ele>34.6</ele>
        <time>2017-07-21T09:06:22Z</time>
      </trkpt>
      <trkpt lat="59.227746591752" lon="17.946914153633">
        <ele>35</ele>
        <time>2017-07-21T09:06:23Z</time>
      </trkpt>
      <trkpt lat="59.227732426341" lon="17.946929157234">
        <ele>35.4</ele>
        <time>2017-07-21T09:06:24Z</time>
      </trkpt>
      <trkpt lat="59.22771658455" lon="17.946945669577">
        <ele>35.8</ele>
        <time>2017-07-21T09:06:25Z</time>
      </trkpt>
      <trkpt lat="59.227697725275" lon="17.946961259911">
        <ele>36.2</ele>
        <time>2017-07-21T09:06:26Z</time>
      </trkpt>
      <trkpt lat="59.227679368914" lon="17.946977604616">
        <ele>36.8</ele>
        <time>2017-07-21T09:06:27Z</time>
      </trkpt>
      <trkpt lat="59.227641650364" lon="17.947026554912">
        <ele>36.8</ele>
        <time>2017-07-21T09:06:29Z</time>
      </trkpt>
      <trkpt lat="59.227547773084" lon="17.947114145767">
        <ele>36.8</ele>
        <time>2017-07-21T09:06:34Z</time>
      </trkpt>
      <trkpt lat="59.227441239135" lon="17.947235264222">
        <ele>36.8</ele>
        <time>2017-07-21T09:06:40Z</time>
      </trkpt>
      <trkpt lat="59.227339231412" lon="17.947344228922">
        <ele>36.8</ele>
        <time>2017-07-21T09:06:45Z</time>
      </trkpt>
      <trkpt lat="59.227230266712" lon="17.947493007647">
        <ele>36.8</ele>
        <time>2017-07-21T09:06:50Z</time>
      </trkpt>
      <trkpt lat="59.22710386766" lon="17.947618149414">
        <ele>36.8</ele>
        <time>2017-07-21T09:06:56Z</time>
      </trkpt>
      <trkpt lat="59.226958944609" lon="17.947777573152">
        <ele>36.8</ele>
        <time>2017-07-21T09:07:02Z</time>
      </trkpt>
      <trkpt lat="59.226862301302" lon="17.947874300278">
        <ele>37.2</ele>
        <time>2017-07-21T09:07:07Z</time>
      </trkpt>
      <trkpt lat="59.226846040416" lon="17.947900870901">
        <ele>37.6</ele>
        <time>2017-07-21T09:07:08Z</time>
      </trkpt>
      <trkpt lat="59.226830533901" lon="17.947912940837">
        <ele>38</ele>
        <time>2017-07-21T09:07:09Z</time>
      </trkpt>
      <trkpt lat="59.226816787585" lon="17.947929536999">
        <ele>38.4</ele>
        <time>2017-07-21T09:07:10Z</time>
      </trkpt>
      <trkpt lat="59.226801867803" lon="17.947967339368">
        <ele>38.8</ele>
        <time>2017-07-21T09:07:11Z</time>
      </trkpt>
      <trkpt lat="59.22673254949" lon="17.948146628209">
        <ele>38.8</ele>
        <time>2017-07-21T09:07:15Z</time>
      </trkpt>
      <trkpt lat="59.226651328879" lon="17.948338406081">
        <ele>38.8</ele>
        <time>2017-07-21T09:07:20Z</time>
      </trkpt>
      <trkpt lat="59.2265221638" lon="17.948548624133">
        <ele>38.8</ele>
        <time>2017-07-21T09:07:26Z</time>
      </trkpt>
      <trkpt lat="59.226389813599" lon="17.948853473836">
        <ele>38.8</ele>
        <time>2017-07-21T09:07:32Z</time>
      </trkpt>
      <trkpt lat="59.226278334329" lon="17.949070062132">
        <ele>38.8</ele>
        <time>2017-07-21T09:07:37Z</time>
      </trkpt>
      <trkpt lat="59.226211530586" lon="17.949217248296">
        <ele>38.8</ele>
        <time>2017-07-21T09:07:40Z</time>
      </trkpt>
      <trkpt lat="59.226188228904" lon="17.949275670139">
        <ele>38.8</ele>
        <time>2017-07-21T09:07:41Z</time>
      </trkpt>
      <trkpt lat="59.226063925327" lon="17.949683281936">
        <ele>38.8</ele>
        <time>2017-07-21T09:07:47Z</time>
      </trkpt>
      <trkpt lat="59.225988991141" lon="17.949982599585">
        <ele>38.8</ele>
        <time>2017-07-21T09:07:52Z</time>
      </trkpt>
      <trkpt lat="59.225904333951" lon="17.950342015457">
        <ele>38.2</ele>
        <time>2017-07-21T09:07:57Z</time>
      </trkpt>
      <trkpt lat="59.225880026441" lon="17.950424158077">
        <ele>37.8</ele>
        <time>2017-07-21T09:07:58Z</time>
      </trkpt>
      <trkpt lat="59.225852952904" lon="17.950500349548">
        <ele>37.4</ele>
        <time>2017-07-21T09:07:59Z</time>
      </trkpt>
      <trkpt lat="59.225828477756" lon="17.950567153291">
        <ele>37</ele>
        <time>2017-07-21T09:08:00Z</time>
      </trkpt>
      <trkpt lat="59.225803667332" lon="17.950631107188">
        <ele>36.6</ele>
        <time>2017-07-21T09:08:01Z</time>
      </trkpt>
      <trkpt lat="59.225756141959" lon="17.950749459616">
        <ele>36.6</ele>
        <time>2017-07-21T09:08:03Z</time>
      </trkpt>
      <trkpt lat="59.225626306328" lon="17.950925060421">
        <ele>36.6</ele>
        <time>2017-07-21T09:08:07Z</time>
      </trkpt>
      <trkpt lat="59.225591689081" lon="17.950947188637">
        <ele>36</ele>
        <time>2017-07-21T09:08:08Z</time>
      </trkpt>
      <trkpt lat="59.225556485101" lon="17.950965293541">
        <ele>35.6</ele>
        <time>2017-07-21T09:08:09Z</time>
      </trkpt>
      <trkpt lat="59.225520023836" lon="17.950982727893">
        <ele>34.8</ele>
        <time>2017-07-21T09:08:10Z</time>
      </trkpt>
      <trkpt lat="59.225479371621" lon="17.950996474209">
        <ele>34.4</ele>
        <time>2017-07-21T09:08:11Z</time>
      </trkpt>
      <trkpt lat="59.225434276999" lon="17.95100477229">
        <ele>34.4</ele>
        <time>2017-07-21T09:08:12Z</time>
      </trkpt>
      <trkpt lat="59.225310560155" lon="17.951018267149">
        <ele>33.8</ele>
        <time>2017-07-21T09:08:15Z</time>
      </trkpt>
      <trkpt lat="59.225272757786" lon="17.951021200814">
        <ele>33.4</ele>
        <time>2017-07-21T09:08:16Z</time>
      </trkpt>
      <trkpt lat="59.225236631797" lon="17.951031175275">
        <ele>33</ele>
        <time>2017-07-21T09:08:17Z</time>
      </trkpt>
      <trkpt lat="59.225200589627" lon="17.951042742297">
        <ele>32.6</ele>
        <time>2017-07-21T09:08:18Z</time>
      </trkpt>
      <trkpt lat="59.225165301828" lon="17.951055482785">
        <ele>32.2</ele>
        <time>2017-07-21T09:08:19Z</time>
      </trkpt>
      <trkpt lat="59.225132025685" lon="17.951066630712">
        <ele>32.2</ele>
        <time>2017-07-21T09:08:20Z</time>
      </trkpt>
      <trkpt lat="59.224924322203" lon="17.951097057009">
        <ele>32.2</ele>
        <time>2017-07-21T09:08:26Z</time>
      </trkpt>
      <trkpt lat="59.224832456579" lon="17.951121867433">
        <ele>32.2</ele>
        <time>2017-07-21T09:08:30Z</time>
      </trkpt>
      <trkpt lat="59.224818039711" lon="17.951154724481">
        <ele>32.2</ele>
        <time>2017-07-21T09:08:31Z</time>
      </trkpt>
      <trkpt lat="59.224766239569" lon="17.951428644973">
        <ele>32.2</ele>
        <time>2017-07-21T09:08:37Z</time>
      </trkpt>
      <trkpt lat="59.224764563189" lon="17.951754449426">
        <ele>32.2</ele>
        <time>2017-07-21T09:08:43Z</time>
      </trkpt>
      <trkpt lat="59.224769759967" lon="17.952148482545">
        <ele>32.2</ele>
        <time>2017-07-21T09:08:50Z</time>
      </trkpt>
      <trkpt lat="59.224809071078" lon="17.952621221705">
        <ele>32.2</ele>
        <time>2017-07-21T09:08:58Z</time>
      </trkpt>
      <trkpt lat="59.224755510737" lon="17.952875528551">
        <ele>32.2</ele>
        <time>2017-07-21T09:09:03Z</time>
      </trkpt>
      <trkpt lat="59.224687282071" lon="17.953062444921">
        <ele>32.2</ele>
        <time>2017-07-21T09:09:08Z</time>
      </trkpt>
      <trkpt lat="59.224581167217" lon="17.95323519588">
        <ele>32.2</ele>
        <time>2017-07-21T09:09:14Z</time>
      </trkpt>
      <trkpt lat="59.224422581669" lon="17.953378023456">
        <ele>32.2</ele>
        <time>2017-07-21T09:09:21Z</time>
      </trkpt>
      <trkpt lat="59.224268438528" lon="17.953591929544">
        <ele>32.2</ele>
        <time>2017-07-21T09:09:29Z</time>
      </trkpt>
      <trkpt lat="59.224191660324" lon="17.953751604739">
        <ele>32.2</ele>
        <time>2017-07-21T09:09:34Z</time>
      </trkpt>
      <trkpt lat="59.224107925143" lon="17.95397615584">
        <ele>32.2</ele>
        <time>2017-07-21T09:09:39Z</time>
      </trkpt>
      <trkpt lat="59.224028045636" lon="17.954214369438">
        <ele>32.2</ele>
        <time>2017-07-21T09:09:44Z</time>
      </trkpt>
      <trkpt lat="59.22389611453" lon="17.95458719635">
        <ele>32.2</ele>
        <time>2017-07-21T09:09:52Z</time>
      </trkpt>
      <trkpt lat="59.223768122917" lon="17.954858099358">
        <ele>32.2</ele>
        <time>2017-07-21T09:09:57Z</time>
      </trkpt>
      <trkpt lat="59.223596377786" lon="17.955045853918">
        <ele>32.2</ele>
        <time>2017-07-21T09:10:05Z</time>
      </trkpt>
      <trkpt lat="59.22345103564" lon="17.955174599902">
        <ele>32.2</ele>
        <time>2017-07-21T09:10:12Z</time>
      </trkpt>
      <trkpt lat="59.223353889419" lon="17.955250288459">
        <ele>32.6</ele>
        <time>2017-07-21T09:10:17Z</time>
      </trkpt>
      <trkpt lat="59.223333186126" lon="17.955262693671">
        <ele>33</ele>
        <time>2017-07-21T09:10:18Z</time>
      </trkpt>
      <trkpt lat="59.223313069566" lon="17.955279038376">
        <ele>33.4</ele>
        <time>2017-07-21T09:10:19Z</time>
      </trkpt>
      <trkpt lat="59.223294377929" lon="17.955298987298">
        <ele>33.8</ele>
        <time>2017-07-21T09:10:20Z</time>
      </trkpt>
      <trkpt lat="59.223273842274" lon="17.955318181849">
        <ele>34.2</ele>
        <time>2017-07-21T09:10:21Z</time>
      </trkpt>
      <trkpt lat="59.22315766914" lon="17.955429158205">
        <ele>34.2</ele>
        <time>2017-07-21T09:10:27Z</time>
      </trkpt>
      <trkpt lat="59.22298835476" lon="17.955584558631">
        <ele>34.2</ele>
        <time>2017-07-21T09:10:35Z</time>
      </trkpt>
      <trkpt lat="59.222902775561" lon="17.955764601843">
        <ele>34.2</ele>
        <time>2017-07-21T09:10:41Z</time>
      </trkpt>
      <trkpt lat="59.222789955187" lon="17.955879517692">
        <ele>34.2</ele>
        <time>2017-07-21T09:10:47Z</time>
      </trkpt>
      <trkpt lat="59.222659868099" lon="17.955973897886">
        <ele>34.2</ele>
        <time>2017-07-21T09:10:54Z</time>
      </trkpt>
      <trkpt lat="59.222581664972" lon="17.956031732996">
        <ele>34.2</ele>
        <time>2017-07-21T09:10:59Z</time>
      </trkpt>
      <trkpt lat="59.222485692217" lon="17.956147235578">
        <ele>34.2</ele>
        <time>2017-07-21T09:11:04Z</time>
      </trkpt>
      <trkpt lat="59.222376978974" lon="17.956278579951">
        <ele>34.2</ele>
        <time>2017-07-21T09:11:10Z</time>
      </trkpt>
      <trkpt lat="59.222227194421" lon="17.956473207669">
        <ele>34.2</ele>
        <time>2017-07-21T09:11:18Z</time>
      </trkpt>
      <trkpt lat="59.222123677956" lon="17.956601618377">
        <ele>34.2</ele>
        <time>2017-07-21T09:11:23Z</time>
      </trkpt>
      <trkpt lat="59.222029633038" lon="17.95670697886">
        <ele>34.2</ele>
        <time>2017-07-21T09:11:28Z</time>
      </trkpt>
      <trkpt lat="59.221923518184" lon="17.956703961376">
        <ele>34.2</ele>
        <time>2017-07-21T09:11:32Z</time>
      </trkpt>
      <trkpt lat="59.221868449101" lon="17.956729190895">
        <ele>34.2</ele>
        <time>2017-07-21T09:11:34Z</time>
      </trkpt>
      <trkpt lat="59.221815224036" lon="17.956752073482">
        <ele>34.2</ele>
        <time>2017-07-21T09:11:36Z</time>
      </trkpt>
      <trkpt lat="59.221760322591" lon="17.95675307931">
        <ele>34.2</ele>
        <time>2017-07-21T09:11:38Z</time>
      </trkpt>
      <trkpt lat="59.221649262416" lon="17.956763724323">
        <ele>34.2</ele>
        <time>2017-07-21T09:11:43Z</time>
      </trkpt>
      <trkpt lat="59.221532167273" lon="17.956830276609">
        <ele>34.2</ele>
        <time>2017-07-21T09:11:48Z</time>
      </trkpt>
      <trkpt lat="59.221414904492" lon="17.956920633491">
        <ele>34.2</ele>
        <time>2017-07-21T09:11:53Z</time>
      </trkpt>
      <trkpt lat="59.221301665023" lon="17.957003111387">
        <ele>34.2</ele>
        <time>2017-07-21T09:11:58Z</time>
      </trkpt>
      <trkpt lat="59.22121809748" lon="17.95706488599">
        <ele>34.2</ele>
        <time>2017-07-21T09:12:02Z</time>
      </trkpt>
      <trkpt lat="59.221204015888" lon="17.957071675329">
        <ele>34.2</ele>
        <time>2017-07-21T09:12:03Z</time>
      </trkpt>
      <trkpt lat="59.22116110056" lon="17.957079219039">
        <ele>34.2</ele>
        <time>2017-07-21T09:12:06Z</time>
      </trkpt>
      <trkpt lat="59.221132350643" lon="17.957075111908">
        <ele>34.2</ele>
        <time>2017-07-21T09:12:07Z</time>
      </trkpt>
      <trkpt lat="59.221042412856" lon="17.957110399707">
        <ele>34.2</ele>
        <time>2017-07-21T09:12:11Z</time>
      </trkpt>
      <trkpt lat="59.220931352681" lon="17.957120038892">
        <ele>34.2</ele>
        <time>2017-07-21T09:12:15Z</time>
      </trkpt>
      <trkpt lat="59.220905787886" lon="17.957100341427">
        <ele>34.2</ele>
        <time>2017-07-21T09:12:16Z</time>
      </trkpt>
      <trkpt lat="59.220851724631" lon="17.956999674808">
        <ele>34.2</ele>
        <time>2017-07-21T09:12:19Z</time>
      </trkpt>
      <trkpt lat="59.22082666275" lon="17.956921387862">
        <ele>34.2</ele>
        <time>2017-07-21T09:12:21Z</time>
      </trkpt>
      <trkpt lat="59.220739742447" lon="17.956572114089">
        <ele>34.2</ele>
        <time>2017-07-21T09:12:29Z</time>
      </trkpt>
      <trkpt lat="59.220684086631" lon="17.956245471446">
        <ele>34.2</ele>
        <time>2017-07-21T09:12:36Z</time>
      </trkpt>
      <trkpt lat="59.220603955667" lon="17.955825705894">
        <ele>34.2</ele>
        <time>2017-07-21T09:12:44Z</time>
      </trkpt>
      <trkpt lat="59.22055341281" lon="17.955539128733">
        <ele>34.2</ele>
        <time>2017-07-21T09:12:50Z</time>
      </trkpt>
      <trkpt lat="59.220499517193" lon="17.955366293955">
        <ele>34.2</ele>
        <time>2017-07-21T09:12:54Z</time>
      </trkpt>
      <trkpt lat="59.220366747897" lon="17.95500796773">
        <ele>34.2</ele>
        <time>2017-07-21T09:13:02Z</time>
      </trkpt>
      <trkpt lat="59.220324084026" lon="17.954874360244">
        <ele>34.2</ele>
        <time>2017-07-21T09:13:07Z</time>
      </trkpt>
      <trkpt lat="59.220323078198" lon="17.954841922291">
        <ele>34.2</ele>
        <time>2017-07-21T09:13:08Z</time>
      </trkpt>
      <trkpt lat="59.22034973264" lon="17.954682414734">
        <ele>34.2</ele>
        <time>2017-07-21T09:13:13Z</time>
      </trkpt>
      <trkpt lat="59.220369178648" lon="17.954482757876">
        <ele>34.2</ele>
        <time>2017-07-21T09:13:17Z</time>
      </trkpt>
      <trkpt lat="59.220366077345" lon="17.954424084576">
        <ele>34.2</ele>
        <time>2017-07-21T09:13:18Z</time>
      </trkpt>
      <trkpt lat="59.22031871961" lon="17.954190145747">
        <ele>34.2</ele>
        <time>2017-07-21T09:13:23Z</time>
      </trkpt>
      <trkpt lat="59.220221992484" lon="17.953887223881">
        <ele>34.2</ele>
        <time>2017-07-21T09:13:29Z</time>
      </trkpt>
      <trkpt lat="59.220185615038" lon="17.95360902862">
        <ele>34.2</ele>
        <time>2017-07-21T09:13:33Z</time>
      </trkpt>
      <trkpt lat="59.220129791584" lon="17.953255144802">
        <ele>34.2</ele>
        <time>2017-07-21T09:13:38Z</time>
      </trkpt>
      <trkpt lat="59.220020659246" lon="17.952745441463">
        <ele>34.2</ele>
        <time>2017-07-21T09:13:45Z</time>
      </trkpt>
      <trkpt lat="59.219942456119" lon="17.952428605643">
        <ele>34.2</ele>
        <time>2017-07-21T09:13:50Z</time>
      </trkpt>
      <trkpt lat="59.219838017645" lon="17.951965673306">
        <ele>34.2</ele>
        <time>2017-07-21T09:13:57Z</time>
      </trkpt>
      <trkpt lat="59.219783786752" lon="17.951546662125">
        <ele>34.2</ele>
        <time>2017-07-21T09:14:04Z</time>
      </trkpt>
      <trkpt lat="59.219857463653" lon="17.951481283305">
        <ele>34.2</ele>
        <time>2017-07-21T09:14:07Z</time>
      </trkpt>
      <trkpt lat="59.220004649817" lon="17.951392099889">
        <ele>34.2</ele>
        <time>2017-07-21T09:14:13Z</time>
      </trkpt>
      <trkpt lat="59.220046726955" lon="17.951330995838">
        <ele>34.2</ele>
        <time>2017-07-21T09:14:15Z</time>
      </trkpt>
      <trkpt lat="59.220095509613" lon="17.951193951773">
        <ele>34.2</ele>
        <time>2017-07-21T09:14:18Z</time>
      </trkpt>
      <trkpt lat="59.220170946713" lon="17.950984152816">
        <ele>34.2</ele>
        <time>2017-07-21T09:14:24Z</time>
      </trkpt>
      <trkpt lat="59.220272870617" lon="17.950727750495">
        <ele>34.2</ele>
        <time>2017-07-21T09:14:31Z</time>
      </trkpt>
      <trkpt lat="59.220374459245" lon="17.950478975703">
        <ele>34.2</ele>
        <time>2017-07-21T09:14:38Z</time>
      </trkpt>
      <trkpt lat="59.220471102552" lon="17.950233888947">
        <ele>34.2</ele>
        <time>2017-07-21T09:14:45Z</time>
      </trkpt>
      <trkpt lat="59.220471354009" lon="17.950211928369">
        <ele>34.2</ele>
        <time>2017-07-21T09:14:46Z</time>
      </trkpt>
      <trkpt lat="59.220432294355" lon="17.950059461608">
        <ele>34.2</ele>
        <time>2017-07-21T09:14:50Z</time>
      </trkpt>
      <trkpt lat="59.220384685163" lon="17.949986874354">
        <ele>34.2</ele>
        <time>2017-07-21T09:14:52Z</time>
      </trkpt>
      <trkpt lat="59.220335734867" lon="17.949922166086">
        <ele>34.2</ele>
        <time>2017-07-21T09:14:55Z</time>
      </trkpt>
      <trkpt lat="59.220323162017" lon="17.949901043698">
        <ele>34.2</ele>
        <time>2017-07-21T09:14:56Z</time>
      </trkpt>
      <trkpt lat="59.220222579217" lon="17.949755533914">
        <ele>34.2</ele>
        <time>2017-07-21T09:15:03Z</time>
      </trkpt>
      <trkpt lat="59.22012342134" lon="17.949618489849">
        <ele>34.2</ele>
        <time>2017-07-21T09:15:09Z</time>
      </trkpt>
      <trkpt lat="59.219964332878" lon="17.949409529082">
        <ele>34.2</ele>
        <time>2017-07-21T09:15:17Z</time>
      </trkpt>
      <trkpt lat="59.219835419256" lon="17.949262091461">
        <ele>34.2</ele>
        <time>2017-07-21T09:15:24Z</time>
      </trkpt>
      <trkpt lat="59.219737434845" lon="17.949126053224">
        <ele>34.2</ele>
        <time>2017-07-21T09:15:29Z</time>
      </trkpt>
      <trkpt lat="59.219646826506" lon="17.948877781346">
        <ele>34.2</ele>
        <time>2017-07-21T09:15:34Z</time>
      </trkpt>
      <trkpt lat="59.219568958655" lon="17.948727829155">
        <ele>34.2</ele>
        <time>2017-07-21T09:15:40Z</time>
      </trkpt>
      <trkpt lat="59.219476087203" lon="17.948687596035">
        <ele>34.2</ele>
        <time>2017-07-21T09:15:45Z</time>
      </trkpt>
      <trkpt lat="59.219415318428" lon="17.94864945839">
        <ele>34.2</ele>
        <time>2017-07-21T09:15:47Z</time>
      </trkpt>
      <trkpt lat="59.21931708256" lon="17.948574943299">
        <ele>34.2</ele>
        <time>2017-07-21T09:15:51Z</time>
      </trkpt>
      <trkpt lat="59.219227899144" lon="17.948530100134">
        <ele>34.2</ele>
        <time>2017-07-21T09:15:55Z</time>
      </trkpt>
      <trkpt lat="59.219170818405" lon="17.948421973624">
        <ele>34.2</ele>
        <time>2017-07-21T09:15:58Z</time>
      </trkpt>
      <trkpt lat="59.219093202011" lon="17.948271183243">
        <ele>34.2</ele>
        <time>2017-07-21T09:16:02Z</time>
      </trkpt>
      <trkpt lat="59.218993457401" lon="17.948149813331">
        <ele>34.2</ele>
        <time>2017-07-21T09:16:06Z</time>
      </trkpt>
      <trkpt lat="59.21889379661" lon="17.948025509754">
        <ele>34.2</ele>
        <time>2017-07-21T09:16:10Z</time>
      </trkpt>
      <trkpt lat="59.218851216558" lon="17.947899948892">
        <ele>34.2</ele>
        <time>2017-07-21T09:16:13Z</time>
      </trkpt>
      <trkpt lat="59.218817856596" lon="17.947907324964">
        <ele>34.2</ele>
        <time>2017-07-21T09:16:16Z</time>
      </trkpt>
      <trkpt lat="59.218825232668" lon="17.947917969977">
        <ele>34.2</ele>
        <time>2017-07-21T09:16:18Z</time>
      </trkpt>
      <trkpt lat="59.218836967328" lon="17.947875389925">
        <ele>34.2</ele>
        <time>2017-07-21T09:16:20Z</time>
      </trkpt>
      <trkpt lat="59.218831602912" lon="17.947846137094">
        <ele>34.2</ele>
        <time>2017-07-21T09:16:21Z</time>
      </trkpt>
      <trkpt lat="59.21875633345" lon="17.94771739111">
        <ele>34.2</ele>
        <time>2017-07-21T09:16:25Z</time>
      </trkpt>
      <trkpt lat="59.218609482562" lon="17.947487559412">
        <ele>34.2</ele>
        <time>2017-07-21T09:16:31Z</time>
      </trkpt>
      <trkpt lat="59.21838501528" lon="17.947158569837">
        <ele>34.2</ele>
        <time>2017-07-21T09:16:39Z</time>
      </trkpt>
      <trkpt lat="59.218270602345" lon="17.947002582678">
        <ele>34.2</ele>
        <time>2017-07-21T09:16:44Z</time>
      </trkpt>
      <trkpt lat="59.218109753684" lon="17.946761686872">
        <ele>34.2</ele>
        <time>2017-07-21T09:16:50Z</time>
      </trkpt>
      <trkpt lat="59.217935577802" lon="17.946490616226">
        <ele>34.2</ele>
        <time>2017-07-21T09:16:57Z</time>
      </trkpt>
      <trkpt lat="59.21783683902" lon="17.946415765859">
        <ele>34.2</ele>
        <time>2017-07-21T09:17:01Z</time>
      </trkpt>
      <trkpt lat="59.217725527388" lon="17.946331527764">
        <ele>34.2</ele>
        <time>2017-07-21T09:17:07Z</time>
      </trkpt>
      <trkpt lat="59.217684707535" lon="17.946343681519">
        <ele>34.2</ele>
        <time>2017-07-21T09:17:09Z</time>
      </trkpt>
      <trkpt lat="59.217646653709" lon="17.946393218548">
        <ele>34.2</ele>
        <time>2017-07-21T09:17:11Z</time>
      </trkpt>
      <trkpt lat="59.21759795487" lon="17.946493968986">
        <ele>34.2</ele>
        <time>2017-07-21T09:17:14Z</time>
      </trkpt>
      <trkpt lat="59.217534922982" lon="17.946635874553">
        <ele>34.2</ele>
        <time>2017-07-21T09:17:18Z</time>
      </trkpt>
      <trkpt lat="59.217489073989" lon="17.94666127171">
        <ele>34.2</ele>
        <time>2017-07-21T09:17:20Z</time>
      </trkpt>
      <trkpt lat="59.217475914406" lon="17.946646603385">
        <ele>34.2</ele>
        <time>2017-07-21T09:17:21Z</time>
      </trkpt>
      <trkpt lat="59.217418833667" lon="17.946543003101">
        <ele>34.2</ele>
        <time>2017-07-21T09:17:25Z</time>
      </trkpt>
      <trkpt lat="59.21737667271" lon="17.946512576804">
        <ele>34.2</ele>
        <time>2017-07-21T09:17:27Z</time>
      </trkpt>
      <trkpt lat="59.217336691047" lon="17.94653051407">
        <ele>34.2</ele>
        <time>2017-07-21T09:17:30Z</time>
      </trkpt>
      <trkpt lat="59.217316574487" lon="17.946542081092">
        <ele>34.2</ele>
        <time>2017-07-21T09:17:33Z</time>
      </trkpt>
      <trkpt lat="59.217307522035" lon="17.946547780784">
        <ele>34.2</ele>
        <time>2017-07-21T09:17:35Z</time>
      </trkpt>
      <trkpt lat="59.217294949185" lon="17.946556581779">
        <ele>34.2</ele>
        <time>2017-07-21T09:17:36Z</time>
      </trkpt>
      <trkpt lat="59.217212974203" lon="17.946567897344">
        <ele>34.2</ele>
        <time>2017-07-21T09:17:40Z</time>
      </trkpt>
      <trkpt lat="59.217158240396" lon="17.946448539088">
        <ele>34.2</ele>
        <time>2017-07-21T09:17:45Z</time>
      </trkpt>
      <trkpt lat="59.217127227366" lon="17.946383327906">
        <ele>34.2</ele>
        <time>2017-07-21T09:17:47Z</time>
      </trkpt>
      <trkpt lat="59.217103841865" lon="17.946292300472">
        <ele>34.2</ele>
        <time>2017-07-21T09:17:49Z</time>
      </trkpt>
      <trkpt lat="59.217046090574" lon="17.946122147902">
        <ele>34.2</ele>
        <time>2017-07-21T09:17:53Z</time>
      </trkpt>
      <trkpt lat="59.21697937065" lon="17.945929448021">
        <ele>34.2</ele>
        <time>2017-07-21T09:17:58Z</time>
      </trkpt>
      <trkpt lat="59.216961181927" lon="17.945934644799">
        <ele>34.2</ele>
        <time>2017-07-21T09:17:59Z</time>
      </trkpt>
      <trkpt lat="59.216967133076" lon="17.94596054487">
        <ele>34.2</ele>
        <time>2017-07-21T09:18:01Z</time>
      </trkpt>
      <trkpt lat="59.216964786144" lon="17.946043944775">
        <ele>34.2</ele>
        <time>2017-07-21T09:18:05Z</time>
      </trkpt>
      <trkpt lat="59.216963780316" lon="17.946064228973">
        <ele>34.8</ele>
        <time>2017-07-21T09:18:06Z</time>
      </trkpt>
      <trkpt lat="59.216964450868" lon="17.946084010257">
        <ele>35.2</ele>
        <time>2017-07-21T09:18:07Z</time>
      </trkpt>
      <trkpt lat="59.216963277402" lon="17.946112508717">
        <ele>35.6</ele>
        <time>2017-07-21T09:18:08Z</time>
      </trkpt>
      <trkpt lat="59.216971240207" lon="17.946124997748">
        <ele>36</ele>
        <time>2017-07-21T09:18:09Z</time>
      </trkpt>
      <trkpt lat="59.216978281003" lon="17.946147125964">
        <ele>36.4</ele>
        <time>2017-07-21T09:18:10Z</time>
      </trkpt>
      <trkpt lat="59.216981717582" lon="17.946202949418">
        <ele>36.4</ele>
        <time>2017-07-21T09:18:12Z</time>
      </trkpt>
      <trkpt lat="59.216993536061" lon="17.946320212199">
        <ele>36.4</ele>
        <time>2017-07-21T09:18:16Z</time>
      </trkpt>
      <trkpt lat="59.216999151934" lon="17.946520371971">
        <ele>36.4</ele>
        <time>2017-07-21T09:18:21Z</time>
      </trkpt>
      <trkpt lat="59.216999654848" lon="17.946561946195">
        <ele>36.4</ele>
        <time>2017-07-21T09:18:22Z</time>
      </trkpt>
      <trkpt lat="59.21700367816" lon="17.946640987512">
        <ele>36.8</ele>
        <time>2017-07-21T09:18:24Z</time>
      </trkpt>
      <trkpt lat="59.217007785291" lon="17.946679544252">
        <ele>37.4</ele>
        <time>2017-07-21T09:18:25Z</time>
      </trkpt>
      <trkpt lat="59.217009629309" lon="17.946717011345">
        <ele>37.8</ele>
        <time>2017-07-21T09:18:26Z</time>
      </trkpt>
      <trkpt lat="59.217007450015" lon="17.946748611108">
        <ele>38.2</ele>
        <time>2017-07-21T09:18:27Z</time>
      </trkpt>
      <trkpt lat="59.217002504694" lon="17.94677778012">
        <ele>38.6</ele>
        <time>2017-07-21T09:18:28Z</time>
      </trkpt>
      <trkpt lat="59.216989680387" lon="17.94680208763">
        <ele>38.6</ele>
        <time>2017-07-21T09:18:29Z</time>
      </trkpt>
      <trkpt lat="59.216974173872" lon="17.946891271046">
        <ele>38.6</ele>
        <time>2017-07-21T09:18:32Z</time>
      </trkpt>
      <trkpt lat="59.216967719809" lon="17.946966624327">
        <ele>38.6</ele>
        <time>2017-07-21T09:18:34Z</time>
      </trkpt>
      <trkpt lat="59.216938383159" lon="17.947105428591">
        <ele>38.6</ele>
        <time>2017-07-21T09:18:38Z</time>
      </trkpt>
      <trkpt lat="59.216965624334" lon="17.947299218119">
        <ele>38.6</ele>
        <time>2017-07-21T09:18:46Z</time>
      </trkpt>
      <trkpt lat="59.216969815284" lon="17.947357723781">
        <ele>38.6</ele>
        <time>2017-07-21T09:18:48Z</time>
      </trkpt>
      <trkpt lat="59.216964953782" lon="17.947468783956">
        <ele>38.6</ele>
        <time>2017-07-21T09:18:51Z</time>
      </trkpt>
      <trkpt lat="59.216964953782" lon="17.947588812764">
        <ele>38.6</ele>
        <time>2017-07-21T09:18:54Z</time>
      </trkpt>
      <trkpt lat="59.216964199411" lon="17.947716636739">
        <ele>38.6</ele>
        <time>2017-07-21T09:18:57Z</time>
      </trkpt>
      <trkpt lat="59.216984148333" lon="17.947799282273">
        <ele>38.6</ele>
        <time>2017-07-21T09:19:00Z</time>
      </trkpt>
      <trkpt lat="59.216998984296" lon="17.947797102979">
        <ele>38.6</ele>
        <time>2017-07-21T09:19:01Z</time>
      </trkpt>
      <trkpt lat="59.217058579605" lon="17.947787631432">
        <ele>38.6</ele>
        <time>2017-07-21T09:19:04Z</time>
      </trkpt>
      <trkpt lat="59.217065033668" lon="17.947753517099">
        <ele>38.6</ele>
        <time>2017-07-21T09:19:05Z</time>
      </trkpt>
      <trkpt lat="59.217110044471" lon="17.947653185756">
        <ele>38.6</ele>
        <time>2017-07-21T09:19:09Z</time>
      </trkpt>
      <trkpt lat="59.217141644234" lon="17.947445985188">
        <ele>38.6</ele>
        <time>2017-07-21T09:19:14Z</time>
      </trkpt>
      <trkpt lat="59.21714952322" lon="17.947410781208">
        <ele>39</ele>
        <time>2017-07-21T09:19:15Z</time>
      </trkpt>
      <trkpt lat="59.217157486025" lon="17.947374319943">
        <ele>39.4</ele>
        <time>2017-07-21T09:19:16Z</time>
      </trkpt>
      <trkpt lat="59.217165616468" lon="17.947334925013">
        <ele>40.4</ele>
        <time>2017-07-21T09:19:17Z</time>
      </trkpt>
      <trkpt lat="59.217172824902" lon="17.947296032997">
        <ele>40.8</ele>
        <time>2017-07-21T09:19:18Z</time>
      </trkpt>
      <trkpt lat="59.217196964774" lon="17.947166616461">
        <ele>40.8</ele>
        <time>2017-07-21T09:19:21Z</time>
      </trkpt>
      <trkpt lat="59.21721406385" lon="17.947094280664">
        <ele>40.8</ele>
        <time>2017-07-21T09:19:23Z</time>
      </trkpt>
      <trkpt lat="59.217235102419" lon="17.947025549084">
        <ele>40.8</ele>
        <time>2017-07-21T09:19:25Z</time>
      </trkpt>
      <trkpt lat="59.21731632303" lon="17.946771409876">
        <ele>40.8</ele>
        <time>2017-07-21T09:19:32Z</time>
      </trkpt>
      <trkpt lat="59.217425036273" lon="17.946482821059">
        <ele>40.8</ele>
        <time>2017-07-21T09:19:40Z</time>
      </trkpt>
      <trkpt lat="59.217450852525" lon="17.946411910185">
        <ele>41.6</ele>
        <time>2017-07-21T09:19:42Z</time>
      </trkpt>
      <trkpt lat="59.21745965352" lon="17.946368827219">
        <ele>42</ele>
        <time>2017-07-21T09:19:43Z</time>
      </trkpt>
      <trkpt lat="59.217470633809" lon="17.946330019022">
        <ele>42.4</ele>
        <time>2017-07-21T09:19:44Z</time>
      </trkpt>
      <trkpt lat="59.21748312284" lon="17.9462933063">
        <ele>42.8</ele>
        <time>2017-07-21T09:19:45Z</time>
      </trkpt>
      <trkpt lat="59.21751329768" lon="17.946153831484">
        <ele>42.8</ele>
        <time>2017-07-21T09:19:50Z</time>
      </trkpt>
      <trkpt lat="59.217507346531" lon="17.946137738236">
        <ele>42.8</ele>
        <time>2017-07-21T09:19:51Z</time>
      </trkpt>
      <trkpt lat="59.217544478348" lon="17.946073951977">
        <ele>42.8</ele>
        <time>2017-07-21T09:19:55Z</time>
      </trkpt>
      <trkpt lat="59.21760549858" lon="17.945964065268">
        <ele>42.8</ele>
        <time>2017-07-21T09:19:59Z</time>
      </trkpt>
      <trkpt lat="59.217644558234" lon="17.945879408078">
        <ele>42.8</ele>
        <time>2017-07-21T09:20:01Z</time>
      </trkpt>
      <trkpt lat="59.2176876412" lon="17.945786620445">
        <ele>42.8</ele>
        <time>2017-07-21T09:20:03Z</time>
      </trkpt>
      <trkpt lat="59.217773471856" lon="17.945617389884">
        <ele>42.8</ele>
        <time>2017-07-21T09:20:08Z</time>
      </trkpt>
      <trkpt lat="59.217784452145" lon="17.945584029922">
        <ele>42.8</ele>
        <time>2017-07-21T09:20:09Z</time>
      </trkpt>
      <trkpt lat="59.21782091341" lon="17.945521584767">
        <ele>42.8</ele>
        <time>2017-07-21T09:20:12Z</time>
      </trkpt>
      <trkpt lat="59.217827702749" lon="17.945519573111">
        <ele>42.8</ele>
        <time>2017-07-21T09:20:13Z</time>
      </trkpt>
      <trkpt lat="59.217870282801" lon="17.945509095736">
        <ele>42.8</ele>
        <time>2017-07-21T09:21:50Z</time>
      </trkpt>
      <trkpt lat="59.217901714926" lon="17.945446818219">
        <ele>42.8</ele>
        <time>2017-07-21T09:21:52Z</time>
      </trkpt>
      <trkpt lat="59.21798519865" lon="17.945261075315">
        <ele>42.8</ele>
        <time>2017-07-21T09:21:57Z</time>
      </trkpt>
      <trkpt lat="59.218048481995" lon="17.945097041532">
        <ele>42.8</ele>
        <time>2017-07-21T09:22:02Z</time>
      </trkpt>
      <trkpt lat="59.218068514736" lon="17.945049516159">
        <ele>42.8</ele>
        <time>2017-07-21T09:22:03Z</time>
      </trkpt>
      <trkpt lat="59.218160045084" lon="17.944744414999">
        <ele>42.8</ele>
        <time>2017-07-21T09:22:10Z</time>
      </trkpt>
      <trkpt lat="59.218236488012" lon="17.944504022107">
        <ele>42.8</ele>
        <time>2017-07-21T09:22:15Z</time>
      </trkpt>
      <trkpt lat="59.218306560696" lon="17.944257845704">
        <ele>42.8</ele>
        <time>2017-07-21T09:22:22Z</time>
      </trkpt>
      <trkpt lat="59.218313014759" lon="17.944222222629">
        <ele>42.8</ele>
        <time>2017-07-21T09:22:23Z</time>
      </trkpt>
      <trkpt lat="59.218324414143" lon="17.944179139663">
        <ele>42.8</ele>
        <time>2017-07-21T09:22:26Z</time>
      </trkpt>
      <trkpt lat="59.218344865979" lon="17.944150557384">
        <ele>42.8</ele>
        <time>2017-07-21T09:22:30Z</time>
      </trkpt>
      <trkpt lat="59.218655163917" lon="17.943416889677">
        <ele>57.8</ele>
        <time>2017-07-21T09:24:34Z</time>
      </trkpt>
      <trkpt lat="59.218749711749" lon="17.943248329668">
        <ele>57.8</ele>
        <time>2017-07-21T09:24:39Z</time>
      </trkpt>
      <trkpt lat="59.218812575999" lon="17.943090666129">
        <ele>57.8</ele>
        <time>2017-07-21T09:24:42Z</time>
      </trkpt>
      <trkpt lat="59.218847947617" lon="17.943080691668">
        <ele>57.8</ele>
        <time>2017-07-21T09:24:43Z</time>
      </trkpt>
      <trkpt lat="59.21894911715" lon="17.943002488541">
        <ele>57.8</ele>
        <time>2017-07-21T09:24:47Z</time>
      </trkpt>
      <trkpt lat="59.218984656406" lon="17.942732339904">
        <ele>57.8</ele>
        <time>2017-07-21T09:24:51Z</time>
      </trkpt>
      <trkpt lat="59.219008712459" lon="17.942672074043">
        <ele>57.8</ele>
        <time>2017-07-21T09:24:52Z</time>
      </trkpt>
      <trkpt lat="59.219120024091" lon="17.942317100578">
        <ele>57.8</ele>
        <time>2017-07-21T09:24:58Z</time>
      </trkpt>
      <trkpt lat="59.219059674411" lon="17.942151222777">
        <ele>57.8</ele>
        <time>2017-07-21T09:25:01Z</time>
      </trkpt>
      <trkpt lat="59.219040731317" lon="17.942108055992">
        <ele>57.8</ele>
        <time>2017-07-21T09:25:02Z</time>
      </trkpt>
      <trkpt lat="59.21892732421" lon="17.941917786862">
        <ele>57.8</ele>
        <time>2017-07-21T09:25:06Z</time>
      </trkpt>
      <trkpt lat="59.218813246551" lon="17.941782838272">
        <ele>57.8</ele>
        <time>2017-07-21T09:25:09Z</time>
      </trkpt>
      <trkpt lat="59.218724817506" lon="17.94165141008">
        <ele>57.8</ele>
        <time>2017-07-21T09:25:12Z</time>
      </trkpt>
      <trkpt lat="59.218667401491" lon="17.941581253577">
        <ele>57.4</ele>
        <time>2017-07-21T09:25:14Z</time>
      </trkpt>
      <trkpt lat="59.218640998506" lon="17.94154663633">
        <ele>57</ele>
        <time>2017-07-21T09:25:15Z</time>
      </trkpt>
      <trkpt lat="59.218617361548" lon="17.941518556965">
        <ele>56.6</ele>
        <time>2017-07-21T09:25:16Z</time>
      </trkpt>
      <trkpt lat="59.218590288011" lon="17.941484945546">
        <ele>56.2</ele>
        <time>2017-07-21T09:25:17Z</time>
      </trkpt>
      <trkpt lat="59.218563885026" lon="17.941449071014">
        <ele>55.8</ele>
        <time>2017-07-21T09:25:18Z</time>
      </trkpt>
      <trkpt lat="59.218544439018" lon="17.941408921713">
        <ele>55.8</ele>
        <time>2017-07-21T09:25:19Z</time>
      </trkpt>
      <trkpt lat="59.218437653612" lon="17.94115268703">
        <ele>55.8</ele>
        <time>2017-07-21T09:25:24Z</time>
      </trkpt>
      <trkpt lat="59.218398510139" lon="17.941116728679">
        <ele>55.8</ele>
        <time>2017-07-21T09:25:25Z</time>
      </trkpt>
      <trkpt lat="59.218330113835" lon="17.941045482529">
        <ele>55.4</ele>
        <time>2017-07-21T09:25:27Z</time>
      </trkpt>
      <trkpt lat="59.218296502416" lon="17.94101019473">
        <ele>54.6</ele>
        <time>2017-07-21T09:25:28Z</time>
      </trkpt>
      <trkpt lat="59.218267836318" lon="17.940972811456">
        <ele>54.2</ele>
        <time>2017-07-21T09:25:29Z</time>
      </trkpt>
      <trkpt lat="59.218236320374" lon="17.940944229177">
        <ele>53.8</ele>
        <time>2017-07-21T09:25:30Z</time>
      </trkpt>
      <trkpt lat="59.218179742549" lon="17.940885555877">
        <ele>53.8</ele>
        <time>2017-07-21T09:25:32Z</time>
      </trkpt>
      <trkpt lat="59.218168175527" lon="17.940833085183">
        <ele>53.8</ele>
        <time>2017-07-21T09:25:33Z</time>
      </trkpt>
      <trkpt lat="59.218197176901" lon="17.940753289495">
        <ele>53.8</ele>
        <time>2017-07-21T09:25:35Z</time>
      </trkpt>
      <trkpt lat="59.218255431106" lon="17.940609204634">
        <ele>53.8</ele>
        <time>2017-07-21T09:25:39Z</time>
      </trkpt>
      <trkpt lat="59.21827521239" lon="17.940572240455">
        <ele>53.8</ele>
        <time>2017-07-21T09:25:40Z</time>
      </trkpt>
      <trkpt lat="59.218281582634" lon="17.940519099209">
        <ele>53.8</ele>
        <time>2017-07-21T09:25:41Z</time>
      </trkpt>
      <trkpt lat="59.218332628405" lon="17.940320867274">
        <ele>53.8</ele>
        <time>2017-07-21T09:25:45Z</time>
      </trkpt>
      <trkpt lat="59.218443269485" lon="17.939981148867">
        <ele>53.8</ele>
        <time>2017-07-21T09:25:52Z</time>
      </trkpt>
      <trkpt lat="59.218447795711" lon="17.939873860547">
        <ele>53.8</ele>
        <time>2017-07-21T09:25:55Z</time>
      </trkpt>
      <trkpt lat="59.218442598933" lon="17.939837650739">
        <ele>53.8</ele>
        <time>2017-07-21T09:25:56Z</time>
      </trkpt>
      <trkpt lat="59.21842189564" lon="17.939724495089">
        <ele>53.8</ele>
        <time>2017-07-21T09:26:01Z</time>
      </trkpt>
      <trkpt lat="59.218381327244" lon="17.939604047186">
        <ele>53.8</ele>
        <time>2017-07-21T09:26:06Z</time>
      </trkpt>
      <trkpt lat="59.218363557616" lon="17.939595413829">
        <ele>53.8</ele>
        <time>2017-07-21T09:26:07Z</time>
      </trkpt>
      <trkpt lat="59.218283007557" lon="17.939507152422">
        <ele>53.8</ele>
        <time>2017-07-21T09:26:11Z</time>
      </trkpt>
      <trkpt lat="59.218162475835" lon="17.939388883813">
        <ele>53.8</ele>
        <time>2017-07-21T09:26:17Z</time>
      </trkpt>
      <trkpt lat="59.218054852239" lon="17.939263239132">
        <ele>53.8</ele>
        <time>2017-07-21T09:26:23Z</time>
      </trkpt>
      <trkpt lat="59.217966674651" lon="17.939177408476">
        <ele>53.8</ele>
        <time>2017-07-21T09:26:28Z</time>
      </trkpt>
      <trkpt lat="59.217895260863" lon="17.939094595304">
        <ele>53.8</ele>
        <time>2017-07-21T09:26:34Z</time>
      </trkpt>
      <trkpt lat="59.217884783488" lon="17.939094846761">
        <ele>53.8</ele>
        <time>2017-07-21T09:27:00Z</time>
      </trkpt>
      <trkpt lat="59.21785611739" lon="17.939047069931">
        <ele>53.8</ele>
        <time>2017-07-21T09:27:02Z</time>
      </trkpt>
      <trkpt lat="59.217771795476" lon="17.938927879313">
        <ele>53.8</ele>
        <time>2017-07-21T09:27:06Z</time>
      </trkpt>
      <trkpt lat="59.217638607085" lon="17.938768120299">
        <ele>53.8</ele>
        <time>2017-07-21T09:27:14Z</time>
      </trkpt>
      <trkpt lat="59.217543388701" lon="17.938651695708">
        <ele>53.8</ele>
        <time>2017-07-21T09:27:18Z</time>
      </trkpt>
      <trkpt lat="59.21744037515" lon="17.938467293908">
        <ele>53.8</ele>
        <time>2017-07-21T09:27:23Z</time>
      </trkpt>
      <trkpt lat="59.217231246745" lon="17.938128665148">
        <ele>53.8</ele>
        <time>2017-07-21T09:27:32Z</time>
      </trkpt>
      <trkpt lat="59.217100405286" lon="17.937928924471">
        <ele>53.8</ele>
        <time>2017-07-21T09:27:38Z</time>
      </trkpt>
      <trkpt lat="59.217016670105" lon="17.937741756644">
        <ele>53.8</ele>
        <time>2017-07-21T09:27:44Z</time>
      </trkpt>
      <trkpt lat="59.217030919335" lon="17.937728848518">
        <ele>53.8</ele>
        <time>2017-07-21T09:27:47Z</time>
      </trkpt>
      <trkpt lat="59.217035948475" lon="17.937709318691">
        <ele>53.8</ele>
        <time>2017-07-21T09:27:53Z</time>
      </trkpt>
      <trkpt lat="59.217093615947" lon="17.937538747026">
        <ele>53.8</ele>
        <time>2017-07-21T09:27:58Z</time>
      </trkpt>
      <trkpt lat="59.217042318719" lon="17.937439002416">
        <ele>53.8</ele>
        <time>2017-07-21T09:28:01Z</time>
      </trkpt>
      <trkpt lat="59.21702211834" lon="17.937403966074">
        <ele>53.8</ele>
        <time>2017-07-21T09:28:02Z</time>
      </trkpt>
      <trkpt lat="59.216913908011" lon="17.937251666951">
        <ele>53.8</ele>
        <time>2017-07-21T09:28:07Z</time>
      </trkpt>
      <trkpt lat="59.216793627746" lon="17.937077742526">
        <ele>53.8</ele>
        <time>2017-07-21T09:28:13Z</time>
      </trkpt>
      <trkpt lat="59.216645519573" lon="17.936897531676">
        <ele>53.8</ele>
        <time>2017-07-21T09:28:19Z</time>
      </trkpt>
      <trkpt lat="59.216448964018" lon="17.936649595074">
        <ele>53.8</ele>
        <time>2017-07-21T09:28:27Z</time>
      </trkpt>
      <trkpt lat="59.216359864421" lon="17.936481370341">
        <ele>53.8</ele>
        <time>2017-07-21T09:28:32Z</time>
      </trkpt>
      <trkpt lat="59.216306555537" lon="17.936333513625">
        <ele>53.8</ele>
        <time>2017-07-21T09:28:37Z</time>
      </trkpt>
      <trkpt lat="59.21619985395" lon="17.936050037767">
        <ele>53.8</ele>
        <time>2017-07-21T09:28:44Z</time>
      </trkpt>
      <trkpt lat="59.216105389937" lon="17.935705793134">
        <ele>53.8</ele>
        <time>2017-07-21T09:28:50Z</time>
      </trkpt>
      <trkpt lat="59.216035987805" lon="17.935352244592">
        <ele>53.8</ele>
        <time>2017-07-21T09:28:56Z</time>
      </trkpt>
      <trkpt lat="59.215990809364" lon="17.934880930355">
        <ele>53.8</ele>
        <time>2017-07-21T09:29:03Z</time>
      </trkpt>
      <trkpt lat="59.215976224858" lon="17.934564932725">
        <ele>53.8</ele>
        <time>2017-07-21T09:29:08Z</time>
      </trkpt>
      <trkpt lat="59.215984103844" lon="17.934241978118">
        <ele>53.8</ele>
        <time>2017-07-21T09:29:13Z</time>
      </trkpt>
      <trkpt lat="59.215952420262" lon="17.933930171438">
        <ele>53.8</ele>
        <time>2017-07-21T09:29:18Z</time>
      </trkpt>
      <trkpt lat="59.215959125782" lon="17.933567989539">
        <ele>53.8</ele>
        <time>2017-07-21T09:29:24Z</time>
      </trkpt>
      <trkpt lat="59.21597102808" lon="17.933335056538">
        <ele>53.2</ele>
        <time>2017-07-21T09:29:28Z</time>
      </trkpt>
      <trkpt lat="59.215971363356" lon="17.933279316903">
        <ele>52.8</ele>
        <time>2017-07-21T09:29:29Z</time>
      </trkpt>
      <trkpt lat="59.215966753311" lon="17.93322005687">
        <ele>52.4</ele>
        <time>2017-07-21T09:29:30Z</time>
      </trkpt>
      <trkpt lat="59.215966753311" lon="17.933158701362">
        <ele>52</ele>
        <time>2017-07-21T09:29:31Z</time>
      </trkpt>
      <trkpt lat="59.215970441347" lon="17.933101369166">
        <ele>51.6</ele>
        <time>2017-07-21T09:29:32Z</time>
      </trkpt>
      <trkpt lat="59.215984942034" lon="17.932678334673">
        <ele>51.6</ele>
        <time>2017-07-21T09:29:39Z</time>
      </trkpt>
      <trkpt lat="59.215997095789" lon="17.932231327946">
        <ele>51.6</ele>
        <time>2017-07-21T09:29:46Z</time>
      </trkpt>
      <trkpt lat="59.216018301996" lon="17.931745345384">
        <ele>51.6</ele>
        <time>2017-07-21T09:29:53Z</time>
      </trkpt>
      <trkpt lat="59.216027941181" lon="17.931255004234">
        <ele>51.6</ele>
        <time>2017-07-21T09:29:59Z</time>
      </trkpt>
      <trkpt lat="59.216005812965" lon="17.93061831511">
        <ele>51.2</ele>
        <time>2017-07-21T09:30:06Z</time>
      </trkpt>
      <trkpt lat="59.215996425237" lon="17.930522509993">
        <ele>50.8</ele>
        <time>2017-07-21T09:30:07Z</time>
      </trkpt>
      <trkpt lat="59.215988965346" lon="17.93043056055">
        <ele>50.4</ele>
        <time>2017-07-21T09:30:08Z</time>
      </trkpt>
      <trkpt lat="59.215979577618" lon="17.930340455125">
        <ele>50</ele>
        <time>2017-07-21T09:30:09Z</time>
      </trkpt>
      <trkpt lat="59.215974716116" lon="17.930248002768">
        <ele>49.6</ele>
        <time>2017-07-21T09:30:10Z</time>
      </trkpt>
      <trkpt lat="59.215947810217" lon="17.929980871615">
        <ele>49.6</ele>
        <time>2017-07-21T09:30:13Z</time>
      </trkpt>
      <trkpt lat="59.215926939286" lon="17.929806779552">
        <ele>49.6</ele>
        <time>2017-07-21T09:30:15Z</time>
      </trkpt>
      <trkpt lat="59.215883269587" lon="17.929491703931">
        <ele>49.6</ele>
        <time>2017-07-21T09:30:19Z</time>
      </trkpt>
      <trkpt lat="59.215810179419" lon="17.92910957311">
        <ele>49.6</ele>
        <time>2017-07-21T09:30:25Z</time>
      </trkpt>
      <trkpt lat="59.215756786716" lon="17.928866665648">
        <ele>49.6</ele>
        <time>2017-07-21T09:30:30Z</time>
      </trkpt>
      <trkpt lat="59.215677158666" lon="17.928528958897">
        <ele>49.6</ele>
        <time>2017-07-21T09:30:36Z</time>
      </trkpt>
      <trkpt lat="59.215583449024" lon="17.928189408128">
        <ele>49.6</ele>
        <time>2017-07-21T09:30:42Z</time>
      </trkpt>
      <trkpt lat="59.215552435994" lon="17.92808027579">
        <ele>50</ele>
        <time>2017-07-21T09:30:44Z</time>
      </trkpt>
      <trkpt lat="59.215542880628" lon="17.928030403485">
        <ele>50.4</ele>
        <time>2017-07-21T09:30:45Z</time>
      </trkpt>
      <trkpt lat="59.215533409081" lon="17.927982626655">
        <ele>50.8</ele>
        <time>2017-07-21T09:30:46Z</time>
      </trkpt>
      <trkpt lat="59.21552008186" lon="17.927939711327">
        <ele>51.2</ele>
        <time>2017-07-21T09:30:47Z</time>
      </trkpt>
      <trkpt lat="59.215506335544" lon="17.927897047456">
        <ele>51.6</ele>
        <time>2017-07-21T09:30:48Z</time>
      </trkpt>
      <trkpt lat="59.21542201363" lon="17.927606614621">
        <ele>51.6</ele>
        <time>2017-07-21T09:30:54Z</time>
      </trkpt>
      <trkpt lat="59.215330902377" lon="17.927334035233">
        <ele>51.6</ele>
        <time>2017-07-21T09:31:01Z</time>
      </trkpt>
      <trkpt lat="59.215246329006" lon="17.927104538811">
        <ele>51.6</ele>
        <time>2017-07-21T09:31:08Z</time>
      </trkpt>
      <trkpt lat="59.215230151939" lon="17.92707025684">
        <ele>52</ele>
        <time>2017-07-21T09:31:09Z</time>
      </trkpt>
      <trkpt lat="59.215218920193" lon="17.927034801403">
        <ele>52.4</ele>
        <time>2017-07-21T09:31:10Z</time>
      </trkpt>
      <trkpt lat="59.215206850257" lon="17.926993730093">
        <ele>52.8</ele>
        <time>2017-07-21T09:31:11Z</time>
      </trkpt>
      <trkpt lat="59.215196372882" lon="17.926954251344">
        <ele>53.2</ele>
        <time>2017-07-21T09:31:12Z</time>
      </trkpt>
      <trkpt lat="59.215178519435" lon="17.926922483943">
        <ele>53.6</ele>
        <time>2017-07-21T09:31:13Z</time>
      </trkpt>
      <trkpt lat="59.215143818369" lon="17.926845119006">
        <ele>53.6</ele>
        <time>2017-07-21T09:31:15Z</time>
      </trkpt>
      <trkpt lat="59.215033177289" lon="17.926554434714">
        <ele>53.6</ele>
        <time>2017-07-21T09:31:21Z</time>
      </trkpt>
      <trkpt lat="59.2149802875" lon="17.926461479443">
        <ele>53.6</ele>
        <time>2017-07-21T09:31:24Z</time>
      </trkpt>
      <trkpt lat="59.214963858976" lon="17.926431891336">
        <ele>53.6</ele>
        <time>2017-07-21T09:31:25Z</time>
      </trkpt>
      <trkpt lat="59.214898815432" lon="17.92631756222">
        <ele>53.6</ele>
        <time>2017-07-21T09:31:29Z</time>
      </trkpt>
      <trkpt lat="59.214794796053" lon="17.926110026376">
        <ele>53.6</ele>
        <time>2017-07-21T09:31:36Z</time>
      </trkpt>
      <trkpt lat="59.214686250448" lon="17.925907519672">
        <ele>53.6</ele>
        <time>2017-07-21T09:31:43Z</time>
      </trkpt>
      <trkpt lat="59.214666888259" lon="17.9258749979">
        <ele>54</ele>
        <time>2017-07-21T09:31:44Z</time>
      </trkpt>
      <trkpt lat="59.214650208278" lon="17.925846583259">
        <ele>54.6</ele>
        <time>2017-07-21T09:31:45Z</time>
      </trkpt>
      <trkpt lat="59.214632941564" lon="17.925814312944">
        <ele>55</ele>
        <time>2017-07-21T09:31:46Z</time>
      </trkpt>
      <trkpt lat="59.214622548008" lon="17.925777013489">
        <ele>55.4</ele>
        <time>2017-07-21T09:31:47Z</time>
      </trkpt>
      <trkpt lat="59.214611064805" lon="17.925748515029">
        <ele>55.8</ele>
        <time>2017-07-21T09:31:48Z</time>
      </trkpt>
      <trkpt lat="59.214578040119" lon="17.925701241113">
        <ele>55.8</ele>
        <time>2017-07-21T09:31:50Z</time>
      </trkpt>
      <trkpt lat="59.21448240264" lon="17.925508876508">
        <ele>55.8</ele>
        <time>2017-07-21T09:31:56Z</time>
      </trkpt>
      <trkpt lat="59.214364720764" lon="17.925266723417">
        <ele>55.8</ele>
        <time>2017-07-21T09:32:03Z</time>
      </trkpt>
      <trkpt lat="59.214237567341" lon="17.924978888971">
        <ele>55.8</ele>
        <time>2017-07-21T09:32:11Z</time>
      </trkpt>
      <trkpt lat="59.21413287741" lon="17.924798259026">
        <ele>55.8</ele>
        <time>2017-07-21T09:32:17Z</time>
      </trkpt>
      <trkpt lat="59.214133380324" lon="17.924787614013">
        <ele>55.8</ele>
        <time>2017-07-21T09:32:19Z</time>
      </trkpt>
      <trkpt lat="59.214117706171" lon="17.924750482196">
        <ele>55.8</ele>
        <time>2017-07-21T09:33:46Z</time>
      </trkpt>
      <trkpt lat="59.214021481959" lon="17.924553591365">
        <ele>55.8</ele>
        <time>2017-07-21T09:33:52Z</time>
      </trkpt>
      <trkpt lat="59.213902961893" lon="17.924279251778">
        <ele>55.8</ele>
        <time>2017-07-21T09:33:57Z</time>
      </trkpt>
      <trkpt lat="59.213787375492" lon="17.923889661066">
        <ele>55.8</ele>
        <time>2017-07-21T09:34:04Z</time>
      </trkpt>
      <trkpt lat="59.21370875327" lon="17.923431087317">
        <ele>55.8</ele>
        <time>2017-07-21T09:34:11Z</time>
      </trkpt>
      <trkpt lat="59.213669945073" lon="17.923000928209">
        <ele>55.8</ele>
        <time>2017-07-21T09:34:18Z</time>
      </trkpt>
      <trkpt lat="59.213663574829" lon="17.922887856378">
        <ele>56.2</ele>
        <time>2017-07-21T09:34:20Z</time>
      </trkpt>
      <trkpt lat="59.213649996151" lon="17.922833960761">
        <ele>56.6</ele>
        <time>2017-07-21T09:34:21Z</time>
      </trkpt>
      <trkpt lat="59.213637423301" lon="17.922779478411">
        <ele>57</ele>
        <time>2017-07-21T09:34:22Z</time>
      </trkpt>
      <trkpt lat="59.213639434957" lon="17.922727426812">
        <ele>57.4</ele>
        <time>2017-07-21T09:34:23Z</time>
      </trkpt>
      <trkpt lat="59.213649660875" lon="17.922684092389">
        <ele>57.8</ele>
        <time>2017-07-21T09:34:24Z</time>
      </trkpt>
      <trkpt lat="59.213646224296" lon="17.922448141904">
        <ele>57.8</ele>
        <time>2017-07-21T09:34:29Z</time>
      </trkpt>
      <trkpt lat="59.213648738866" lon="17.922388462776">
        <ele>57.8</ele>
        <time>2017-07-21T09:34:30Z</time>
      </trkpt>
      <trkpt lat="59.21365762368" lon="17.92222719502">
        <ele>57.8</ele>
        <time>2017-07-21T09:34:33Z</time>
      </trkpt>
      <trkpt lat="59.213666927589" lon="17.922126025487">
        <ele>57.8</ele>
        <time>2017-07-21T09:34:35Z</time>
      </trkpt>
      <trkpt lat="59.213661227897" lon="17.922075063535">
        <ele>57.8</ele>
        <time>2017-07-21T09:34:36Z</time>
      </trkpt>
      <trkpt lat="59.213648655047" lon="17.921806758916">
        <ele>57.8</ele>
        <time>2017-07-21T09:34:41Z</time>
      </trkpt>
      <trkpt lat="59.213641278975" lon="17.921756383697">
        <ele>57.8</ele>
        <time>2017-07-21T09:34:42Z</time>
      </trkpt>
      <trkpt lat="59.213625521003" lon="17.921666697367">
        <ele>57.8</ele>
        <time>2017-07-21T09:34:44Z</time>
      </trkpt>
      <trkpt lat="59.213635327826" lon="17.921624117315">
        <ele>57.8</ele>
        <time>2017-07-21T09:34:45Z</time>
      </trkpt>
      <trkpt lat="59.213658126594" lon="17.921423454629">
        <ele>57.8</ele>
        <time>2017-07-21T09:34:49Z</time>
      </trkpt>
      <trkpt lat="59.213667598141" lon="17.921280627053">
        <ele>57.8</ele>
        <time>2017-07-21T09:34:52Z</time>
      </trkpt>
      <trkpt lat="59.213671369996" lon="17.921048196966">
        <ele>57.8</ele>
        <time>2017-07-21T09:34:56Z</time>
      </trkpt>
      <trkpt lat="59.213694252583" lon="17.920883324993">
        <ele>57.8</ele>
        <time>2017-07-21T09:35:00Z</time>
      </trkpt>
      <trkpt lat="59.213707495985" lon="17.920677884624">
        <ele>57.8</ele>
        <time>2017-07-21T09:35:04Z</time>
      </trkpt>
      <trkpt lat="59.213713195677" lon="17.92062457574">
        <ele>57.8</ele>
        <time>2017-07-21T09:35:05Z</time>
      </trkpt>
      <trkpt lat="59.213718560093" lon="17.920565650983">
        <ele>57.8</ele>
        <time>2017-07-21T09:35:06Z</time>
      </trkpt>
      <trkpt lat="59.213738257558" lon="17.920441179768">
        <ele>57.8</ele>
        <time>2017-07-21T09:35:08Z</time>
      </trkpt>
      <trkpt lat="59.213763738534" lon="17.92031696001">
        <ele>57.4</ele>
        <time>2017-07-21T09:35:10Z</time>
      </trkpt>
      <trkpt lat="59.21377413209" lon="17.920258370529">
        <ele>57</ele>
        <time>2017-07-21T09:35:11Z</time>
      </trkpt>
      <trkpt lat="59.213784106551" lon="17.920202463256">
        <ele>56.6</ele>
        <time>2017-07-21T09:35:12Z</time>
      </trkpt>
      <trkpt lat="59.21379424865" lon="17.920140185739">
        <ele>56.2</ele>
        <time>2017-07-21T09:35:13Z</time>
      </trkpt>
      <trkpt lat="59.213802965826" lon="17.920070783607">
        <ele>55.8</ele>
        <time>2017-07-21T09:35:14Z</time>
      </trkpt>
      <trkpt lat="59.213807492052" lon="17.919998363991">
        <ele>55.8</ele>
        <time>2017-07-21T09:35:15Z</time>
      </trkpt>
      <trkpt lat="59.213805480396" lon="17.919425628764">
        <ele>55.8</ele>
        <time>2017-07-21T09:35:23Z</time>
      </trkpt>
      <trkpt lat="59.21379760141" lon="17.919285567215">
        <ele>55.4</ele>
        <time>2017-07-21T09:35:25Z</time>
      </trkpt>
      <trkpt lat="59.213793578098" lon="17.919212141771">
        <ele>55</ele>
        <time>2017-07-21T09:35:26Z</time>
      </trkpt>
      <trkpt lat="59.213789973881" lon="17.919139219241">
        <ele>54.4</ele>
        <time>2017-07-21T09:35:27Z</time>
      </trkpt>
      <trkpt lat="59.213784525646" lon="17.919068224548">
        <ele>54</ele>
        <time>2017-07-21T09:35:28Z</time>
      </trkpt>
      <trkpt lat="59.213776059927" lon="17.918998570959">
        <ele>53.6</ele>
        <time>2017-07-21T09:35:29Z</time>
      </trkpt>
      <trkpt lat="59.213714536781" lon="17.918561203417">
        <ele>53.6</ele>
        <time>2017-07-21T09:35:35Z</time>
      </trkpt>
      <trkpt lat="59.213675728584" lon="17.918381076386">
        <ele>53.2</ele>
        <time>2017-07-21T09:35:38Z</time>
      </trkpt>
      <trkpt lat="59.21366349101" lon="17.918321061982">
        <ele>52.8</ele>
        <time>2017-07-21T09:35:39Z</time>
      </trkpt>
      <trkpt lat="59.213648487409" lon="17.918259119741">
        <ele>52.4</ele>
        <time>2017-07-21T09:35:40Z</time>
      </trkpt>
      <trkpt lat="59.213630969238" lon="17.918201955183">
        <ele>52</ele>
        <time>2017-07-21T09:35:41Z</time>
      </trkpt>
      <trkpt lat="59.213610517402" lon="17.918146383186">
        <ele>51.6</ele>
        <time>2017-07-21T09:35:42Z</time>
      </trkpt>
      <trkpt lat="59.21349752939" lon="17.917846311166">
        <ele>51.6</ele>
        <time>2017-07-21T09:35:48Z</time>
      </trkpt>
      <trkpt lat="59.213322934413" lon="17.917486979113">
        <ele>51.6</ele>
        <time>2017-07-21T09:35:56Z</time>
      </trkpt>
      <trkpt lat="59.213182872864" lon="17.91726846298">
        <ele>51.6</ele>
        <time>2017-07-21T09:36:02Z</time>
      </trkpt>
      <trkpt lat="59.213041637849" lon="17.917082552438">
        <ele>51.6</ele>
        <time>2017-07-21T09:36:08Z</time>
      </trkpt>
      <trkpt lat="59.212922363412" lon="17.91695414173">
        <ele>51.6</ele>
        <time>2017-07-21T09:36:13Z</time>
      </trkpt>
      <trkpt lat="59.21279177341" lon="17.916798657485">
        <ele>51.6</ele>
        <time>2017-07-21T09:36:18Z</time>
      </trkpt>
      <trkpt lat="59.212651711861" lon="17.916641832136">
        <ele>51.6</ele>
        <time>2017-07-21T09:36:24Z</time>
      </trkpt>
      <trkpt lat="59.21255708021" lon="17.916515935998">
        <ele>51.6</ele>
        <time>2017-07-21T09:36:28Z</time>
      </trkpt>
      <trkpt lat="59.212553475993" lon="17.916463213847">
        <ele>51.6</ele>
        <time>2017-07-21T09:36:29Z</time>
      </trkpt>
      <trkpt lat="59.212592619466" lon="17.916347711265">
        <ele>51.6</ele>
        <time>2017-07-21T09:36:33Z</time>
      </trkpt>
      <trkpt lat="59.21266269215" lon="17.91627688421">
        <ele>51.2</ele>
        <time>2017-07-21T09:36:39Z</time>
      </trkpt>
      <trkpt lat="59.212681886701" lon="17.916270513966">
        <ele>50.8</ele>
        <time>2017-07-21T09:36:40Z</time>
      </trkpt>
      <trkpt lat="59.212703009089" lon="17.916267747939">
        <ele>50.4</ele>
        <time>2017-07-21T09:36:41Z</time>
      </trkpt>
      <trkpt lat="59.212725640219" lon="17.916267161206">
        <ele>50</ele>
        <time>2017-07-21T09:36:42Z</time>
      </trkpt>
      <trkpt lat="59.212749444815" lon="17.916265065731">
        <ele>49.6</ele>
        <time>2017-07-21T09:36:43Z</time>
      </trkpt>
      <trkpt lat="59.212828402313" lon="17.916237573099">
        <ele>49.6</ele>
        <time>2017-07-21T09:36:46Z</time>
      </trkpt>
      <trkpt lat="59.212995034485" lon="17.916161130171">
        <ele>49.6</ele>
        <time>2017-07-21T09:36:52Z</time>
      </trkpt>
      <trkpt lat="59.213027807714" lon="17.916138666679">
        <ele>49.2</ele>
        <time>2017-07-21T09:36:53Z</time>
      </trkpt>
      <trkpt lat="59.213064436617" lon="17.916114610626">
        <ele>48.8</ele>
        <time>2017-07-21T09:36:54Z</time>
      </trkpt>
      <trkpt lat="59.213107016669" lon="17.916086028347">
        <ele>48.4</ele>
        <time>2017-07-21T09:36:55Z</time>
      </trkpt>
      <trkpt lat="59.21314968054" lon="17.916057194611">
        <ele>48</ele>
        <time>2017-07-21T09:36:56Z</time>
      </trkpt>
      <trkpt lat="59.213191422402" lon="17.916028109418">
        <ele>47.4</ele>
        <time>2017-07-21T09:36:57Z</time>
      </trkpt>
      <trkpt lat="59.213266524226" lon="17.915968346471">
        <ele>47</ele>
        <time>2017-07-21T09:36:59Z</time>
      </trkpt>
      <trkpt lat="59.213301728206" lon="17.915936076156">
        <ele>46.2</ele>
        <time>2017-07-21T09:37:00Z</time>
      </trkpt>
      <trkpt lat="59.213339362937" lon="17.915901458909">
        <ele>45.8</ele>
        <time>2017-07-21T09:37:01Z</time>
      </trkpt>
      <trkpt lat="59.213383367912" lon="17.91586449473">
        <ele>45.4</ele>
        <time>2017-07-21T09:37:02Z</time>
      </trkpt>
      <trkpt lat="59.21342544505" lon="17.915832140596">
        <ele>45.4</ele>
        <time>2017-07-21T09:37:03Z</time>
      </trkpt>
      <trkpt lat="59.213587467177" lon="17.915727953579">
        <ele>45.4</ele>
        <time>2017-07-21T09:37:07Z</time>
      </trkpt>
      <trkpt lat="59.213671537634" lon="17.915668609727">
        <ele>45.4</ele>
        <time>2017-07-21T09:37:09Z</time>
      </trkpt>
      <trkpt lat="59.213753931711" lon="17.915604907287">
        <ele>45</ele>
        <time>2017-07-21T09:37:11Z</time>
      </trkpt>
      <trkpt lat="59.213792739908" lon="17.915577330836">
        <ele>44.6</ele>
        <time>2017-07-21T09:37:12Z</time>
      </trkpt>
      <trkpt lat="59.213831045191" lon="17.915555705534">
        <ele>44.2</ele>
        <time>2017-07-21T09:37:13Z</time>
      </trkpt>
      <trkpt lat="59.213866584447" lon="17.915532906766">
        <ele>43.8</ele>
        <time>2017-07-21T09:37:14Z</time>
      </trkpt>
      <trkpt lat="59.21389986059" lon="17.915509772722">
        <ele>43.4</ele>
        <time>2017-07-21T09:37:15Z</time>
      </trkpt>
      <trkpt lat="59.214160370042" lon="17.915303913258">
        <ele>43.4</ele>
        <time>2017-07-21T09:37:23Z</time>
      </trkpt>
      <trkpt lat="59.214271094941" lon="17.915234930221">
        <ele>43</ele>
        <time>2017-07-21T09:37:26Z</time>
      </trkpt>
      <trkpt lat="59.214303700532" lon="17.915212215272">
        <ele>42.6</ele>
        <time>2017-07-21T09:37:27Z</time>
      </trkpt>
      <trkpt lat="59.214336389942" lon="17.915188410676">
        <ele>42.2</ele>
        <time>2017-07-21T09:37:28Z</time>
      </trkpt>
      <trkpt lat="59.214368576438" lon="17.915165611908">
        <ele>41.6</ele>
        <time>2017-07-21T09:37:29Z</time>
      </trkpt>
      <trkpt lat="59.214401014391" lon="17.915141472036">
        <ele>41.2</ele>
        <time>2017-07-21T09:37:30Z</time>
      </trkpt>
      <trkpt lat="59.214596731756" lon="17.915001326668">
        <ele>41.2</ele>
        <time>2017-07-21T09:37:36Z</time>
      </trkpt>
      <trkpt lat="59.214713994537" lon="17.914909293406">
        <ele>41.2</ele>
        <time>2017-07-21T09:37:40Z</time>
      </trkpt>
      <trkpt lat="59.214742744454" lon="17.914883058059">
        <ele>41.2</ele>
        <time>2017-07-21T09:37:41Z</time>
      </trkpt>
      <trkpt lat="59.214918009983" lon="17.914718772819">
        <ele>41.2</ele>
        <time>2017-07-21T09:37:46Z</time>
      </trkpt>
      <trkpt lat="59.215101992688" lon="17.914531604992">
        <ele>41.2</ele>
        <time>2017-07-21T09:37:52Z</time>
      </trkpt>
      <trkpt lat="59.215187571887" lon="17.914425573957">
        <ele>41.2</ele>
        <time>2017-07-21T09:37:56Z</time>
      </trkpt>
      <trkpt lat="59.215271307068" lon="17.914294229584">
        <ele>41.2</ele>
        <time>2017-07-21T09:38:00Z</time>
      </trkpt>
      <trkpt lat="59.215291172171" lon="17.914249554057">
        <ele>41.2</ele>
        <time>2017-07-21T09:38:01Z</time>
      </trkpt>
      <trkpt lat="59.215323693943" lon="17.914005892224">
        <ele>41.2</ele>
        <time>2017-07-21T09:38:06Z</time>
      </trkpt>
      <trkpt lat="59.215370548764" lon="17.913681680332">
        <ele>41.2</ele>
        <time>2017-07-21T09:38:13Z</time>
      </trkpt>
      <trkpt lat="59.215441962552" lon="17.91346391857">
        <ele>41.2</ele>
        <time>2017-07-21T09:38:18Z</time>
      </trkpt>
      <trkpt lat="59.215456044144" lon="17.913412956618">
        <ele>41.2</ele>
        <time>2017-07-21T09:38:19Z</time>
      </trkpt>
      <trkpt lat="59.215514968901" lon="17.913185723309">
        <ele>41.2</ele>
        <time>2017-07-21T09:38:25Z</time>
      </trkpt>
      <trkpt lat="59.215515974729" lon="17.913180945626">
        <ele>41.2</ele>
        <time>2017-07-21T09:38:26Z</time>
      </trkpt>
      <trkpt lat="59.215516645281" lon="17.913177592866">
        <ele>41.2</ele>
        <time>2017-07-21T09:38:39Z</time>
      </trkpt>
      <trkpt lat="59.215519578946" lon="17.913154458822">
        <ele>41.2</ele>
        <time>2017-07-21T09:38:40Z</time>
      </trkpt>
      <trkpt lat="59.215527709389" lon="17.913125373629">
        <ele>41.2</ele>
        <time>2017-07-21T09:38:41Z</time>
      </trkpt>
      <trkpt lat="59.215542210076" lon="17.913016660386">
        <ele>41.2</ele>
        <time>2017-07-21T09:38:44Z</time>
      </trkpt>
      <trkpt lat="59.215552687451" lon="17.912762521178">
        <ele>41.2</ele>
        <time>2017-07-21T09:38:49Z</time>
      </trkpt>
      <trkpt lat="59.215581353549" lon="17.912504861572">
        <ele>41.2</ele>
        <time>2017-07-21T09:38:56Z</time>
      </trkpt>
      <trkpt lat="59.215596608607" lon="17.91234074397">
        <ele>41.2</ele>
        <time>2017-07-21T09:39:03Z</time>
      </trkpt>
      <trkpt lat="59.215618317728" lon="17.912086437124">
        <ele>41.2</ele>
        <time>2017-07-21T09:39:10Z</time>
      </trkpt>
      <trkpt lat="59.215641200315" lon="17.911861718385">
        <ele>41.2</ele>
        <time>2017-07-21T09:39:17Z</time>
      </trkpt>
      <trkpt lat="59.215668190033" lon="17.91168192663">
        <ele>41.2</ele>
        <time>2017-07-21T09:39:23Z</time>
      </trkpt>
      <trkpt lat="59.215691407896" lon="17.911394092184">
        <ele>41.2</ele>
        <time>2017-07-21T09:39:30Z</time>
      </trkpt>
      <trkpt lat="59.215691240258" lon="17.911352769417">
        <ele>41.2</ele>
        <time>2017-07-21T09:39:31Z</time>
      </trkpt>
      <trkpt lat="59.215695598846" lon="17.911199632104">
        <ele>41.2</ele>
        <time>2017-07-21T09:39:34Z</time>
      </trkpt>
      <trkpt lat="59.215712195008" lon="17.910971476786">
        <ele>41.2</ele>
        <time>2017-07-21T09:39:39Z</time>
      </trkpt>
      <trkpt lat="59.215741950753" lon="17.910609713982">
        <ele>41.2</ele>
        <time>2017-07-21T09:39:46Z</time>
      </trkpt>
      <trkpt lat="59.21576567153" lon="17.910332692187">
        <ele>41.2</ele>
        <time>2017-07-21T09:39:51Z</time>
      </trkpt>
      <trkpt lat="59.215779753122" lon="17.910123312325">
        <ele>41.2</ele>
        <time>2017-07-21T09:39:55Z</time>
      </trkpt>
      <trkpt lat="59.215790398135" lon="17.910011162503">
        <ele>40.8</ele>
        <time>2017-07-21T09:39:57Z</time>
      </trkpt>
      <trkpt lat="59.215794002352" lon="17.909954249402">
        <ele>40.4</ele>
        <time>2017-07-21T09:39:58Z</time>
      </trkpt>
      <trkpt lat="59.215798528578" lon="17.909897252482">
        <ele>40</ele>
        <time>2017-07-21T09:39:59Z</time>
      </trkpt>
      <trkpt lat="59.21580422827" lon="17.909843021589">
        <ele>39.6</ele>
        <time>2017-07-21T09:40:00Z</time>
      </trkpt>
      <trkpt lat="59.215810179419" lon="17.909790886171">
        <ele>39.2</ele>
        <time>2017-07-21T09:40:01Z</time>
      </trkpt>
      <trkpt lat="59.215812861627" lon="17.909744534264">
        <ele>39.2</ele>
        <time>2017-07-21T09:40:02Z</time>
      </trkpt>
      <trkpt lat="59.215840521897" lon="17.909360643244">
        <ele>39.2</ele>
        <time>2017-07-21T09:40:09Z</time>
      </trkpt>
      <trkpt lat="59.215864997045" lon="17.90910784514">
        <ele>39.2</ele>
        <time>2017-07-21T09:40:15Z</time>
      </trkpt>
      <trkpt lat="59.215893663143" lon="17.908921515503">
        <ele>39.2</ele>
        <time>2017-07-21T09:40:21Z</time>
      </trkpt>
      <trkpt lat="59.215881174112" lon="17.908666202829">
        <ele>39.2</ele>
        <time>2017-07-21T09:40:27Z</time>
      </trkpt>
      <trkpt lat="59.215865919054" lon="17.908305529672">
        <ele>39.2</ele>
        <time>2017-07-21T09:40:34Z</time>
      </trkpt>
      <trkpt lat="59.215867343977" lon="17.908003529815">
        <ele>39.2</ele>
        <time>2017-07-21T09:40:41Z</time>
      </trkpt>
      <trkpt lat="59.215883604863" lon="17.907608155592">
        <ele>39.6</ele>
        <time>2017-07-21T09:40:49Z</time>
      </trkpt>
      <trkpt lat="59.215892405858" lon="17.907556439269">
        <ele>40</ele>
        <time>2017-07-21T09:40:50Z</time>
      </trkpt>
      <trkpt lat="59.215903469966" lon="17.907502208376">
        <ele>40.4</ele>
        <time>2017-07-21T09:40:51Z</time>
      </trkpt>
      <trkpt lat="59.215915539902" lon="17.907444373266">
        <ele>40.8</ele>
        <time>2017-07-21T09:40:52Z</time>
      </trkpt>
      <trkpt lat="59.215928950942" lon="17.907390226192">
        <ele>41.2</ele>
        <time>2017-07-21T09:40:53Z</time>
      </trkpt>
      <trkpt lat="59.215978236514" lon="17.907244967865">
        <ele>41.2</ele>
        <time>2017-07-21T09:40:56Z</time>
      </trkpt>
      <trkpt lat="59.216087620309" lon="17.907055536925">
        <ele>41.2</ele>
        <time>2017-07-21T09:41:01Z</time>
      </trkpt>
      <trkpt lat="59.216127015239" lon="17.906983704042">
        <ele>40.8</ele>
        <time>2017-07-21T09:41:03Z</time>
      </trkpt>
      <trkpt lat="59.21615123893" lon="17.906950092623">
        <ele>40.4</ele>
        <time>2017-07-21T09:41:04Z</time>
      </trkpt>
      <trkpt lat="59.216175630259" lon="17.906916984118">
        <ele>40</ele>
        <time>2017-07-21T09:41:05Z</time>
      </trkpt>
      <trkpt lat="59.216198680484" lon="17.90687155422">
        <ele>39.6</ele>
        <time>2017-07-21T09:41:06Z</time>
      </trkpt>
      <trkpt lat="59.216221227795" lon="17.906824950856">
        <ele>39.2</ele>
        <time>2017-07-21T09:41:07Z</time>
      </trkpt>
      <trkpt lat="59.216357349851" lon="17.9065966279">
        <ele>38.8</ele>
        <time>2017-07-21T09:41:12Z</time>
      </trkpt>
      <trkpt lat="59.21638341756" lon="17.906568213259">
        <ele>38.4</ele>
        <time>2017-07-21T09:41:13Z</time>
      </trkpt>
      <trkpt lat="59.216407305975" lon="17.906550275993">
        <ele>38</ele>
        <time>2017-07-21T09:41:14Z</time>
      </trkpt>
      <trkpt lat="59.216429937105" lon="17.906542480826">
        <ele>37.4</ele>
        <time>2017-07-21T09:41:15Z</time>
      </trkpt>
      <trkpt lat="59.216452065321" lon="17.90655052745">
        <ele>37</ele>
        <time>2017-07-21T09:41:16Z</time>
      </trkpt>
      <trkpt lat="59.216473271528" lon="17.906572236571">
        <ele>37</ele>
        <time>2017-07-21T09:41:17Z</time>
      </trkpt>
      <trkpt lat="59.216583242056" lon="17.906696288691">
        <ele>37</ele>
        <time>2017-07-21T09:41:23Z</time>
      </trkpt>
      <trkpt lat="59.21660386153" lon="17.906692852112">
        <ele>37</ele>
        <time>2017-07-21T09:41:24Z</time>
      </trkpt>
      <trkpt lat="59.216751550608" lon="17.906620348677">
        <ele>37</ele>
        <time>2017-07-21T09:41:29Z</time>
      </trkpt>
      <trkpt lat="59.216908459776" lon="17.906544157206">
        <ele>37</ele>
        <time>2017-07-21T09:41:35Z</time>
      </trkpt>
      <trkpt lat="59.217067883514" lon="17.906435108687">
        <ele>37</ele>
        <time>2017-07-21T09:41:41Z</time>
      </trkpt>
      <trkpt lat="59.217174249825" lon="17.90635690556">
        <ele>37</ele>
        <time>2017-07-21T09:41:46Z</time>
      </trkpt>
      <trkpt lat="59.217194450204" lon="17.906350032402">
        <ele>37</ele>
        <time>2017-07-21T09:41:47Z</time>
      </trkpt>
      <trkpt lat="59.21738002547" lon="17.906300076278">
        <ele>37</ele>
        <time>2017-07-21T09:41:54Z</time>
      </trkpt>
      <trkpt lat="59.217445236652" lon="17.90633511262">
        <ele>37</ele>
        <time>2017-07-21T09:41:57Z</time>
      </trkpt>
      <trkpt lat="59.217458480054" lon="17.906346428185">
        <ele>37</ele>
        <time>2017-07-21T09:41:58Z</time>
      </trkpt>
      <trkpt lat="59.217540790312" lon="17.906347014918">
        <ele>37</ele>
        <time>2017-07-21T09:42:02Z</time>
      </trkpt>
      <trkpt lat="59.217562415614" lon="17.906341482864">
        <ele>36.6</ele>
        <time>2017-07-21T09:42:03Z</time>
      </trkpt>
      <trkpt lat="59.21758286745" lon="17.906338633018">
        <ele>36.2</ele>
        <time>2017-07-21T09:42:04Z</time>
      </trkpt>
      <trkpt lat="59.217606420589" lon="17.906337040457">
        <ele>35.8</ele>
        <time>2017-07-21T09:42:05Z</time>
      </trkpt>
      <trkpt lat="59.217630560461" lon="17.906330251118">
        <ele>35.4</ele>
        <time>2017-07-21T09:42:06Z</time>
      </trkpt>
      <trkpt lat="59.217653107772" lon="17.906315750431">
        <ele>35</ele>
        <time>2017-07-21T09:42:07Z</time>
      </trkpt>
      <trkpt lat="59.217773220399" lon="17.906317342992">
        <ele>35</ele>
        <time>2017-07-21T09:42:12Z</time>
      </trkpt>
      <trkpt lat="59.217863744919" lon="17.906333939154">
        <ele>35</ele>
        <time>2017-07-21T09:42:16Z</time>
      </trkpt>
      <trkpt lat="59.217963238072" lon="17.906199158202">
        <ele>35</ele>
        <time>2017-07-21T09:42:21Z</time>
      </trkpt>
      <trkpt lat="59.218001291898" lon="17.90614484349">
        <ele>34.6</ele>
        <time>2017-07-21T09:42:23Z</time>
      </trkpt>
      <trkpt lat="59.218019899716" lon="17.90610712494">
        <ele>34.2</ele>
        <time>2017-07-21T09:42:24Z</time>
      </trkpt>
      <trkpt lat="59.218040435371" lon="17.906079716127">
        <ele>33.8</ele>
        <time>2017-07-21T09:42:25Z</time>
      </trkpt>
      <trkpt lat="59.218064910519" lon="17.906051972038">
        <ele>33.2</ele>
        <time>2017-07-21T09:42:26Z</time>
      </trkpt>
      <trkpt lat="59.218089301848" lon="17.906025149958">
        <ele>32.8</ele>
        <time>2017-07-21T09:42:27Z</time>
      </trkpt>
      <trkpt lat="59.218181167472" lon="17.905903780046">
        <ele>32.8</ele>
        <time>2017-07-21T09:42:31Z</time>
      </trkpt>
      <trkpt lat="59.218216203814" lon="17.905862541098">
        <ele>32.8</ele>
        <time>2017-07-21T09:42:33Z</time>
      </trkpt>
      <trkpt lat="59.218242020066" lon="17.905884250219">
        <ele>32.8</ele>
        <time>2017-07-21T09:42:35Z</time>
      </trkpt>
      <trkpt lat="59.218316954252" lon="17.906065885992">
        <ele>32.8</ele>
        <time>2017-07-21T09:42:40Z</time>
      </trkpt>
      <trkpt lat="59.218386104927" lon="17.906262693004">
        <ele>32.8</ele>
        <time>2017-07-21T09:42:45Z</time>
      </trkpt>
      <trkpt lat="59.218479563112" lon="17.906474838893">
        <ele>32.8</ele>
        <time>2017-07-21T09:42:50Z</time>
      </trkpt>
      <trkpt lat="59.218584755957" lon="17.906768121574">
        <ele>32.8</ele>
        <time>2017-07-21T09:42:57Z</time>
      </trkpt>
      <trkpt lat="59.218689362069" lon="17.90706266154">
        <ele>32.8</ele>
        <time>2017-07-21T09:43:04Z</time>
      </trkpt>
      <trkpt lat="59.218771253232" lon="17.907290984496">
        <ele>32.8</ele>
        <time>2017-07-21T09:43:10Z</time>
      </trkpt>
      <trkpt lat="59.218802685357" lon="17.907361308637">
        <ele>32.8</ele>
        <time>2017-07-21T09:43:13Z</time>
      </trkpt>
      <trkpt lat="59.21884518159" lon="17.907369774356">
        <ele>32.8</ele>
        <time>2017-07-21T09:43:16Z</time>
      </trkpt>
      <trkpt lat="59.218849121083" lon="17.907369187623">
        <ele>32.8</ele>
        <time>2017-07-21T09:43:17Z</time>
      </trkpt>
      <trkpt lat="59.218868315634" lon="17.907355357488">
        <ele>32.8</ele>
        <time>2017-07-21T09:43:22Z</time>
      </trkpt>
      <trkpt lat="59.218882397226" lon="17.907339599516">
        <ele>32.8</ele>
        <time>2017-07-21T09:43:23Z</time>
      </trkpt>
      <trkpt lat="59.218935538472" lon="17.907268604823">
        <ele>32.8</ele>
        <time>2017-07-21T09:43:26Z</time>
      </trkpt>
      <trkpt lat="59.218961773819" lon="17.907254355593">
        <ele>32.8</ele>
        <time>2017-07-21T09:43:27Z</time>
      </trkpt>
      <trkpt lat="59.21903293615" lon="17.907172967344">
        <ele>32.8</ele>
        <time>2017-07-21T09:43:31Z</time>
      </trkpt>
      <trkpt lat="59.219052885072" lon="17.907186378384">
        <ele>32.8</ele>
        <time>2017-07-21T09:43:32Z</time>
      </trkpt>
      <trkpt lat="59.219133267493" lon="17.907183696176">
        <ele>32.8</ele>
        <time>2017-07-21T09:43:36Z</time>
      </trkpt>
      <trkpt lat="59.219151372397" lon="17.907153940431">
        <ele>32.8</ele>
        <time>2017-07-21T09:43:37Z</time>
      </trkpt>
      <trkpt lat="59.219304258253" lon="17.906948583881">
        <ele>32.8</ele>
        <time>2017-07-21T09:43:44Z</time>
      </trkpt>
      <trkpt lat="59.219433004237" lon="17.906866692718">
        <ele>32.8</ele>
        <time>2017-07-21T09:43:50Z</time>
      </trkpt>
      <trkpt lat="59.219514560124" lon="17.906871051306">
        <ele>32.8</ele>
        <time>2017-07-21T09:43:54Z</time>
      </trkpt>
      <trkpt lat="59.219539286729" lon="17.906912960806">
        <ele>32.8</ele>
        <time>2017-07-21T09:43:56Z</time>
      </trkpt>
      <trkpt lat="59.219572562872" lon="17.906984542232">
        <ele>32.8</ele>
        <time>2017-07-21T09:43:59Z</time>
      </trkpt>
      <trkpt lat="59.219616484028" lon="17.907060733703">
        <ele>32.8</ele>
        <time>2017-07-21T09:44:02Z</time>
      </trkpt>
      <trkpt lat="59.21967247512" lon="17.907003485326">
        <ele>32.8</ele>
        <time>2017-07-21T09:44:05Z</time>
      </trkpt>
      <trkpt lat="59.219695441526" lon="17.906993846141">
        <ele>32.8</ele>
        <time>2017-07-21T09:44:07Z</time>
      </trkpt>
      <trkpt lat="59.219847573011" lon="17.907288637564">
        <ele>35.4</ele>
        <time>2017-07-21T12:52:43Z</time>
      </trkpt>
      <trkpt lat="59.219915298763" lon="17.907451246424">
        <ele>35.4</ele>
        <time>2017-07-21T12:52:47Z</time>
      </trkpt>
      <trkpt lat="59.220004985093" lon="17.907696584637">
        <ele>35.4</ele>
        <time>2017-07-21T12:52:51Z</time>
      </trkpt>
      <trkpt lat="59.220177568414" lon="17.908081481485">
        <ele>35.4</ele>
        <time>2017-07-21T12:52:58Z</time>
      </trkpt>
      <trkpt lat="59.220304386561" lon="17.908328496078">
        <ele>35.4</ele>
        <time>2017-07-21T12:53:03Z</time>
      </trkpt>
      <trkpt lat="59.22041762603" lon="17.908600991647">
        <ele>35.4</ele>
        <time>2017-07-21T12:53:08Z</time>
      </trkpt>
      <trkpt lat="59.220398263841" lon="17.908668130666">
        <ele>35.4</ele>
        <time>2017-07-21T12:53:09Z</time>
      </trkpt>
      <trkpt lat="59.220298183955" lon="17.90882369873">
        <ele>35.4</ele>
        <time>2017-07-21T12:53:12Z</time>
      </trkpt>
      <trkpt lat="59.220261806509" lon="17.908873319578">
        <ele>35.4</ele>
        <time>2017-07-21T12:53:13Z</time>
      </trkpt>
      <trkpt lat="59.220030717526" lon="17.909201470963">
        <ele>35.4</ele>
        <time>2017-07-21T12:53:20Z</time>
      </trkpt>
      <trkpt lat="59.219975480805" lon="17.909279171176">
        <ele>35.4</ele>
        <time>2017-07-21T12:53:22Z</time>
      </trkpt>
      <trkpt lat="59.219929547993" lon="17.909196274185">
        <ele>35.4</ele>
        <time>2017-07-21T12:53:24Z</time>
      </trkpt>
      <trkpt lat="59.219888057588" lon="17.909074568997">
        <ele>35.4</ele>
        <time>2017-07-21T12:53:26Z</time>
      </trkpt>
      <trkpt lat="59.219828546098" lon="17.908914055612">
        <ele>35.4</ele>
        <time>2017-07-21T12:53:29Z</time>
      </trkpt>
      <trkpt lat="59.219721844511" lon="17.908633932514">
        <ele>35.4</ele>
        <time>2017-07-21T12:53:34Z</time>
      </trkpt>
      <trkpt lat="59.219599217314" lon="17.908272085891">
        <ele>35.4</ele>
        <time>2017-07-21T12:53:40Z</time>
      </trkpt>
      <trkpt lat="59.219489498243" lon="17.908004535643">
        <ele>35.4</ele>
        <time>2017-07-21T12:53:45Z</time>
      </trkpt>
      <trkpt lat="59.219360500802" lon="17.907654591318">
        <ele>35.4</ele>
        <time>2017-07-21T12:53:52Z</time>
      </trkpt>
      <trkpt lat="59.219246339324" lon="17.907381425197">
        <ele>35.4</ele>
        <time>2017-07-21T12:53:58Z</time>
      </trkpt>
      <trkpt lat="59.219133770407" lon="17.907146229083">
        <ele>35.4</ele>
        <time>2017-07-21T12:54:03Z</time>
      </trkpt>
      <trkpt lat="59.219105439585" lon="17.907173637896">
        <ele>35.4</ele>
        <time>2017-07-21T12:54:04Z</time>
      </trkpt>
      <trkpt lat="59.218984488768" lon="17.907283021691">
        <ele>35.4</ele>
        <time>2017-07-21T12:54:09Z</time>
      </trkpt>
      <trkpt lat="59.218887007271" lon="17.90732501501">
        <ele>35.4</ele>
        <time>2017-07-21T12:54:14Z</time>
      </trkpt>
      <trkpt lat="59.218816766949" lon="17.907097949339">
        <ele>35.4</ele>
        <time>2017-07-21T12:54:18Z</time>
      </trkpt>
      <trkpt lat="59.218700342358" lon="17.906807097409">
        <ele>35.4</ele>
        <time>2017-07-21T12:54:24Z</time>
      </trkpt>
      <trkpt lat="59.21852331663" lon="17.90636025832">
        <ele>35.4</ele>
        <time>2017-07-21T12:54:32Z</time>
      </trkpt>
      <trkpt lat="59.218368838213" lon="17.905984497743">
        <ele>35.4</ele>
        <time>2017-07-21T12:54:39Z</time>
      </trkpt>
      <trkpt lat="59.218269764155" lon="17.90569054451">
        <ele>35.4</ele>
        <time>2017-07-21T12:54:45Z</time>
      </trkpt>
      <trkpt lat="59.218143868017" lon="17.905367589903">
        <ele>35.4</ele>
        <time>2017-07-21T12:54:50Z</time>
      </trkpt>
      <trkpt lat="59.218004393201" lon="17.905013370809">
        <ele>35.4</ele>
        <time>2017-07-21T12:54:56Z</time>
      </trkpt>
      <trkpt lat="59.217889561171" lon="17.904723105612">
        <ele>35.4</ele>
        <time>2017-07-21T12:55:01Z</time>
      </trkpt>
      <trkpt lat="59.217782691946" lon="17.90450869661">
        <ele>35.4</ele>
        <time>2017-07-21T12:55:06Z</time>
      </trkpt>
      <trkpt lat="59.217697196566" lon="17.904278278179">
        <ele>35.4</ele>
        <time>2017-07-21T12:55:11Z</time>
      </trkpt>
      <trkpt lat="59.21755269261" lon="17.903931854252">
        <ele>35.4</ele>
        <time>2017-07-21T12:55:17Z</time>
      </trkpt>
      <trkpt lat="59.217397208365" lon="17.903542095902">
        <ele>35.4</ele>
        <time>2017-07-21T12:55:24Z</time>
      </trkpt>
      <trkpt lat="59.21726603163" lon="17.903343444872">
        <ele>35.4</ele>
        <time>2017-07-21T12:55:29Z</time>
      </trkpt>
      <trkpt lat="59.217087245703" lon="17.903300948639">
        <ele>35.4</ele>
        <time>2017-07-21T12:55:34Z</time>
      </trkpt>
      <trkpt lat="59.217058328148" lon="17.903325423787">
        <ele>35.4</ele>
        <time>2017-07-21T12:55:35Z</time>
      </trkpt>
      <trkpt lat="59.21698523798" lon="17.903446458423">
        <ele>35.4</ele>
        <time>2017-07-21T12:55:38Z</time>
      </trkpt>
      <trkpt lat="59.216907118672" lon="17.903766814641">
        <ele>35.4</ele>
        <time>2017-07-21T12:55:44Z</time>
      </trkpt>
      <trkpt lat="59.216834279961" lon="17.904166128357">
        <ele>35.4</ele>
        <time>2017-07-21T12:55:50Z</time>
      </trkpt>
      <trkpt lat="59.216781893086" lon="17.904583966072">
        <ele>35.4</ele>
        <time>2017-07-21T12:55:57Z</time>
      </trkpt>
      <trkpt lat="59.21673378098" lon="17.904967354178">
        <ele>35.4</ele>
        <time>2017-07-21T12:56:03Z</time>
      </trkpt>
      <trkpt lat="59.216682148476" lon="17.905406481919">
        <ele>35.4</ele>
        <time>2017-07-21T12:56:10Z</time>
      </trkpt>
      <trkpt lat="59.216623391357" lon="17.905775285519">
        <ele>35.4</ele>
        <time>2017-07-21T12:56:17Z</time>
      </trkpt>
      <trkpt lat="59.216604448263" lon="17.905869498075">
        <ele>35.8</ele>
        <time>2017-07-21T12:56:19Z</time>
      </trkpt>
      <trkpt lat="59.216591204861" lon="17.905917526362">
        <ele>36.2</ele>
        <time>2017-07-21T12:56:20Z</time>
      </trkpt>
      <trkpt lat="59.216577290907" lon="17.905962201889">
        <ele>37</ele>
        <time>2017-07-21T12:56:21Z</time>
      </trkpt>
      <trkpt lat="59.216567484084" lon="17.90600905671">
        <ele>37.4</ele>
        <time>2017-07-21T12:56:22Z</time>
      </trkpt>
      <trkpt lat="59.216546696972" lon="17.906102263438">
        <ele>37.4</ele>
        <time>2017-07-21T12:56:24Z</time>
      </trkpt>
      <trkpt lat="59.216465895456" lon="17.906431336832">
        <ele>37.4</ele>
        <time>2017-07-21T12:56:30Z</time>
      </trkpt>
      <trkpt lat="59.21636078643" lon="17.906636358106">
        <ele>37.4</ele>
        <time>2017-07-21T12:56:35Z</time>
      </trkpt>
      <trkpt lat="59.216245451486" lon="17.906842552846">
        <ele>37.8</ele>
        <time>2017-07-21T12:56:40Z</time>
      </trkpt>
      <trkpt lat="59.216224664374" lon="17.906875577532">
        <ele>38.2</ele>
        <time>2017-07-21T12:56:41Z</time>
      </trkpt>
      <trkpt lat="59.21620572128" lon="17.906909021313">
        <ele>38.6</ele>
        <time>2017-07-21T12:56:42Z</time>
      </trkpt>
      <trkpt lat="59.216190214765" lon="17.906940118162">
        <ele>39</ele>
        <time>2017-07-21T12:56:43Z</time>
      </trkpt>
      <trkpt lat="59.216170182024" lon="17.90695872598">
        <ele>39.4</ele>
        <time>2017-07-21T12:56:44Z</time>
      </trkpt>
      <trkpt lat="59.216117878968" lon="17.907031313234">
        <ele>39.4</ele>
        <time>2017-07-21T12:56:47Z</time>
      </trkpt>
      <trkpt lat="59.216003382214" lon="17.907213787197">
        <ele>39.8</ele>
        <time>2017-07-21T12:56:54Z</time>
      </trkpt>
      <trkpt lat="59.215988881527" lon="17.907251170471">
        <ele>40.4</ele>
        <time>2017-07-21T12:56:55Z</time>
      </trkpt>
      <trkpt lat="59.215974716116" lon="17.907293247609">
        <ele>40.8</ele>
        <time>2017-07-21T12:56:56Z</time>
      </trkpt>
      <trkpt lat="59.215959125782" lon="17.907336414394">
        <ele>41.2</ele>
        <time>2017-07-21T12:56:57Z</time>
      </trkpt>
      <trkpt lat="59.21594252962" lon="17.907377401885">
        <ele>41.6</ele>
        <time>2017-07-21T12:56:58Z</time>
      </trkpt>
      <trkpt lat="59.21591486935" lon="17.907472117355">
        <ele>41.6</ele>
        <time>2017-07-21T12:57:00Z</time>
      </trkpt>
      <trkpt lat="59.215879749189" lon="17.907715863007">
        <ele>41.6</ele>
        <time>2017-07-21T12:57:04Z</time>
      </trkpt>
      <trkpt lat="59.215860554638" lon="17.908154068739">
        <ele>41.6</ele>
        <time>2017-07-21T12:57:10Z</time>
      </trkpt>
      <trkpt lat="59.215866170511" lon="17.908611720479">
        <ele>41.6</ele>
        <time>2017-07-21T12:57:15Z</time>
      </trkpt>
      <trkpt lat="59.215866505787" lon="17.908939871864">
        <ele>41.6</ele>
        <time>2017-07-21T12:57:18Z</time>
      </trkpt>
      <trkpt lat="59.215858542982" lon="17.909046154356">
        <ele>41.6</ele>
        <time>2017-07-21T12:57:19Z</time>
      </trkpt>
      <trkpt lat="59.215795427275" lon="17.909771607801">
        <ele>41.6</ele>
        <time>2017-07-21T12:57:26Z</time>
      </trkpt>
      <trkpt lat="59.215768018462" lon="17.910201515452">
        <ele>41.6</ele>
        <time>2017-07-21T12:57:30Z</time>
      </trkpt>
      <trkpt lat="59.215751003205" lon="17.910413493703">
        <ele>41.6</ele>
        <time>2017-07-21T12:57:32Z</time>
      </trkpt>
      <trkpt lat="59.215704064565" lon="17.911045824239">
        <ele>41.6</ele>
        <time>2017-07-21T12:57:39Z</time>
      </trkpt>
      <trkpt lat="59.215652264423" lon="17.911698774249">
        <ele>41.6</ele>
        <time>2017-07-21T12:57:47Z</time>
      </trkpt>
      <trkpt lat="59.21561060638" lon="17.912167657735">
        <ele>41.6</ele>
        <time>2017-07-21T12:57:53Z</time>
      </trkpt>
    </trkseg>
  </trk>
</gpx>